Darstellungsparameter: Aktuell verwendete Einstellungen:
Skalierung der Graphiken ... ?
xyx+y,   Skalierungsfaktor:      Skalierung: Modus: x, Faktor: 1
Darstellungszeitraum ... ?
Vom - - bis: - -   Zeitraum: 21.05.2019 - 20.08.2019
Min/Max/Avg-Anzeige ... ?
Zeige MMA aktuell
Zeige MMA Monat
Zeige MMA alles
Zeige --A aktuell
Zeige --A Monat
Zeige --A alles
Keine MMA-Anzeige
MMA:
Minimum Maximum Average (ber die Originaldaten)
MMA-Basis: 21.05.2019 - 20.08.2019
Quicknavigation für Darstellung... ?
Tage:      1T, 2T, 3T, 5T -1T -2T -3T -5T +1T +2T +3T +5T
Wochen: 1W, 2W, 3W -1W -2W -3W +1W +2W +3W
Monate: 1M, 3M, 6M -1M -3M -6M +1M +3M +6M
Jahre:    1J, 3J, 5J, 10J -1J -3J -5J -10J +1J +3J +5J +10J
Nutze für die Darstellung ... ?
Originaldaten oder ...
Mittelwerte Minima Maxima auf...
Stundenbasis Tagesbasis Wochenbasis
Monatsbasis Jahresbasis      Datenbasis: Mittelwerte auf Stundenbasis
Darstellen als:
Statistik (Auto) Statistik J:M      Darstellung:
Zur Graphik,    zurück zur Übersicht aller Sensoren.
 
Tabellarische Datenbersicht: ?
 
Sensor: Nr:Datum:Temp:Feuchte:Taupunkt:
Aussen-T/F 1 21-05-2019 00:00:00 14.23333 C 86.6667 % 12.04 C
2 21-05-2019 01:00:00 13.8 C 89.5000 % 12.1 C
3 21-05-2019 02:00:00 13.56667 C 90.6667 % 12.07 C
4 21-05-2019 03:00:00 13.275 C 91.5000 % 11.92 C
5 21-05-2019 04:00:00 13.11667 C 91.0000 % 11.68 C
6 21-05-2019 05:00:00 12.71667 C 91.5833 % 11.38 C
7 21-05-2019 06:00:00 12.21667 C 93.7500 % 11.24 C
8 21-05-2019 07:00:00 12.23333 C 94.0000 % 11.3 C
9 21-05-2019 08:00:00 12.3 C 93.5833 % 11.3 C
10 21-05-2019 09:00:00 12.3 C 93.5833 % 11.3 C
11 21-05-2019 10:00:00 12.23333 C 93.6667 % 11.24 C
12 21-05-2019 11:00:00 12.15 C 93.0833 % 11.07 C
13 21-05-2019 12:00:00 12.11667 C 93.8333 % 11.15 C
14 21-05-2019 13:00:00 12.225 C 94.0000 % 11.29 C
15 21-05-2019 14:00:00 12.15 C 93.6667 % 11.16 C
16 21-05-2019 15:00:00 12.15833 C 93.0833 % 11.07 C
17 21-05-2019 16:00:00 12.09167 C 93.9167 % 11.14 C
18 21-05-2019 17:00:00 12.18333 C 94.0833 % 11.26 C
19 21-05-2019 18:00:00 12.275 C 94.0833 % 11.35 C
20 21-05-2019 19:00:00 12.375 C 93.6667 % 11.38 C
21 21-05-2019 20:00:00 12.21667 C 94.8333 % 11.41 C
22 21-05-2019 21:00:00 12.1 C 95.0000 % 11.32 C
23 21-05-2019 22:00:00 12.04167 C 95.3333 % 11.32 C
24 21-05-2019 23:00:00 11.85833 C 96.0000 % 11.24 C
25 22-05-2019 00:00:00 11.8 C 96.0000 % 11.18 C
Sensor: Nr:Datum:Temp:Feuchte:Taupunkt:
Aussen-T/F 26 22-05-2019 01:00:00 11.75 C 96.0000 % 11.13 C
27 22-05-2019 02:00:00 11.56667 C 96.0000 % 10.95 C
28 22-05-2019 03:00:00 11.575 C 96.0000 % 10.96 C
29 22-05-2019 04:00:00 11.44167 C 95.2500 % 10.71 C
30 22-05-2019 05:00:00 11.33333 C 95.0000 % 10.56 C
31 22-05-2019 06:00:00 11.05 C 94.0000 % 10.12 C
32 22-05-2019 07:00:00 10.66667 C 93.3333 % 9.64 C
33 22-05-2019 08:00:00 10.33333 C 91.9167 % 9.08 C
34 22-05-2019 09:00:00 10.475 C 87.2500 % 8.45 C
35 22-05-2019 10:00:00 10.88333 C 83.4167 % 8.19 C
36 22-05-2019 11:00:00 11.51667 C 82.3333 % 8.61 C
37 22-05-2019 12:00:00 12.85 C 76.6667 % 8.86 C
38 22-05-2019 13:00:00 13.65833 C 73.5833 % 9.03 C
39 22-05-2019 14:00:00 15.01667 C 69.6667 % 9.52 C
40 22-05-2019 15:00:00 17.08333 C 63.7500 % 10.17 C
41 22-05-2019 16:00:00 18.625 C 59.0000 % 10.46 C
42 22-05-2019 17:00:00 18.24167 C 58.7500 % 10.04 C
43 22-05-2019 18:00:00 19.46667 C 54.0833 % 9.94 C
44 22-05-2019 19:00:00 19.025 C 56.0833 % 10.08 C
45 22-05-2019 20:00:00 17.24167 C 70.9167 % 11.92 C
46 22-05-2019 21:00:00 13.73333 C 76.5833 % 9.7 C
47 22-05-2019 22:00:00 11.64167 C 85.5833 % 9.31 C
48 22-05-2019 23:00:00 10.33333 C 89.6667 % 8.71 C
49 23-05-2019 00:00:00 9.5 C 91.6667 % 8.21 C
50 23-05-2019 01:00:00 8.975 C 92.9167 % 7.89 C
Sensor: Nr:Datum:Temp:Feuchte:Taupunkt:
Aussen-T/F 51 23-05-2019 02:00:00 8.54167 C 93.6667 % 7.58 C
52 23-05-2019 03:00:00 8.35833 C 94.8333 % 7.58 C
53 23-05-2019 04:00:00 7.93333 C 95.0000 % 7.18 C
54 23-05-2019 05:00:00 7.71667 C 95.2500 % 7.01 C
55 23-05-2019 06:00:00 7.9 C 96.0000 % 7.3 C
56 23-05-2019 07:00:00 8.675 C 96.0000 % 8.07 C
57 23-05-2019 08:00:00 9.59167 C 95.8333 % 8.96 C
58 23-05-2019 09:00:00 11.05833 C 94.0000 % 10.13 C
59 23-05-2019 10:00:00 13.75 C 87.4167 % 11.7 C
60 23-05-2019 11:00:00 17.49167 C 65.9167 % 11.06 C
61 23-05-2019 12:00:00 18.84167 C 57.8333 % 10.36 C
62 23-05-2019 13:00:00 19.83333 C 56.4167 % 10.92 C
63 23-05-2019 14:00:00 21.25833 C 48.8333 % 10.07 C
64 23-05-2019 15:00:00 22.38333 C 46.0833 % 10.23 C
65 23-05-2019 16:00:00 24.39167 C 39.2500 % 9.64 C
66 23-05-2019 17:00:00 24.78333 C 37.5833 % 9.35 C
67 23-05-2019 18:00:00 24.96667 C 37.5000 % 9.48 C
68 23-05-2019 19:00:00 22.80833 C 52.6667 % 12.64 C
69 23-05-2019 20:00:00 19.33333 C 64.8333 % 12.55 C
70 23-05-2019 21:00:00 16.40833 C 74.0833 % 11.78 C
71 23-05-2019 22:00:00 14.68333 C 82.0000 % 11.65 C
72 23-05-2019 23:00:00 13.66667 C 83.7500 % 10.97 C
73 24-05-2019 00:00:00 12.84167 C 86.3333 % 10.62 C
74 24-05-2019 01:00:00 12.36667 C 87.5833 % 10.37 C
75 24-05-2019 02:00:00 11.83333 C 89.2500 % 10.12 C
Sensor: Nr:Datum:Temp:Feuchte:Taupunkt:
Aussen-T/F 76 24-05-2019 03:00:00 11.40833 C 91.0000 % 9.99 C
77 24-05-2019 04:00:00 11.25 C 92.0000 % 10 C
78 24-05-2019 05:00:00 11.16667 C 92.0000 % 9.92 C
79 24-05-2019 06:00:00 11 C 92.9167 % 9.9 C
80 24-05-2019 07:00:00 11.71667 C 92.7500 % 10.58 C
81 24-05-2019 08:00:00 13.29167 C 88.2500 % 11.39 C
82 24-05-2019 09:00:00 15.28333 C 80.2500 % 11.9 C
83 24-05-2019 10:00:00 16.80833 C 76.3333 % 12.62 C
84 24-05-2019 11:00:00 18.925 C 68.1667 % 12.93 C
85 24-05-2019 12:00:00 20.75833 C 57.3333 % 12.02 C
86 24-05-2019 13:00:00 22.09167 C 46.8333 % 10.21 C
87 24-05-2019 14:00:00 22.98333 C 43.2500 % 9.83 C
88 24-05-2019 15:00:00 23.45 C 40.5000 % 9.27 C
89 24-05-2019 16:00:00 23.88333 C 40.6667 % 9.72 C
90 24-05-2019 17:00:00 24.26667 C 42.4167 % 10.69 C
91 24-05-2019 18:00:00 24.40833 C 41.0833 % 10.34 C
92 24-05-2019 19:00:00 21.04167 C 56.5000 % 12.07 C
93 24-05-2019 20:00:00 19.475 C 61.7500 % 11.95 C
94 24-05-2019 21:00:00 16.96667 C 71.5000 % 11.78 C
95 24-05-2019 22:00:00 15.14167 C 79.5833 % 11.64 C
96 24-05-2019 23:00:00 14.06667 C 84.0000 % 11.41 C
97 25-05-2019 00:00:00 14.75833 C 78.6667 % 11.09 C
98 25-05-2019 01:00:00 13.875 C 77.7500 % 10.06 C
99 25-05-2019 02:00:00 13.125 C 76.0000 % 8.99 C
100 25-05-2019 03:00:00 12.16667 C 76.0833 % 8.08 C
Sensor: Nr:Datum:Temp:Feuchte:Taupunkt:
Aussen-T/F 101 25-05-2019 04:00:00 10.84167 C 75.5000 % 6.69 C
102 25-05-2019 05:00:00 10.2 C 77.2500 % 6.4 C
103 25-05-2019 06:00:00 9.525 C 83.5833 % 6.89 C
104 25-05-2019 07:00:00 10.675 C 80.3333 % 7.43 C
105 25-05-2019 08:00:00 13.04167 C 72.1667 % 8.15 C
106 25-05-2019 09:00:00 14.025 C 71.6667 % 8.99 C
107 25-05-2019 10:00:00 15.3 C 68.2500 % 9.49 C
108 25-05-2019 11:00:00 16.25 C 63.5000 % 9.32 C
109 25-05-2019 12:00:00 16.95833 C 64.4167 % 10.2 C
110 25-05-2019 13:00:00 18.45 C 60.1667 % 10.59 C
111 25-05-2019 14:00:00 19.35833 C 55.0833 % 10.12 C
112 25-05-2019 15:00:00 21.01667 C 50.7500 % 10.43 C
113 25-05-2019 16:00:00 22.06667 C 46.6667 % 10.13 C
114 25-05-2019 17:00:00 21.73333 C 46.0000 % 9.61 C
115 25-05-2019 18:00:00 19.95 C 49.0000 % 8.92 C
116 25-05-2019 19:00:00 18.875 C 54.5833 % 9.53 C
117 25-05-2019 20:00:00 17.98333 C 64.1667 % 11.12 C
118 25-05-2019 21:00:00 16.03333 C 71.4167 % 10.87 C
119 25-05-2019 22:00:00 14.81667 C 75.2500 % 10.48 C
120 25-05-2019 23:00:00 13.38333 C 79.7500 % 9.96 C
121 26-05-2019 00:00:00 11.85 C 85.0000 % 9.41 C
122 26-05-2019 01:00:00 10.775 C 88.8333 % 9.01 C
123 26-05-2019 02:00:00 10.13333 C 90.9167 % 8.72 C
124 26-05-2019 03:00:00 9.44167 C 92.3333 % 8.26 C
125 26-05-2019 04:00:00 8.95 C 93.1667 % 7.91 C
Sensor: Nr:Datum:Temp:Feuchte:Taupunkt:
Aussen-T/F 126 26-05-2019 05:00:00 8.825 C 94.4167 % 7.98 C
127 26-05-2019 06:00:00 9.36667 C 94.5000 % 8.53 C
128 26-05-2019 07:00:00 9.9 C 93.6667 % 8.93 C
129 26-05-2019 08:00:00 11.21667 C 93.1667 % 10.15 C
130 26-05-2019 09:00:00 14.3 C 84.5000 % 11.73 C
131 26-05-2019 10:00:00 16.83333 C 72.8333 % 11.93 C
132 26-05-2019 11:00:00 18.16667 C 63.5833 % 11.15 C
133 26-05-2019 12:00:00 18.99167 C 60.8333 % 11.27 C
134 26-05-2019 13:00:00 20.275 C 58.8333 % 11.96 C
135 26-05-2019 14:00:00 21.68333 C 52.8333 % 11.65 C
136 26-05-2019 15:00:00 23.43333 C 49.0833 % 12.14 C
137 26-05-2019 16:00:00 23.725 C 48.5000 % 12.22 C
138 26-05-2019 17:00:00 21.91667 C 55.7500 % 12.68 C
139 26-05-2019 18:00:00 21.45833 C 58.3333 % 12.94 C
140 26-05-2019 19:00:00 19.93333 C 65.5000 % 13.28 C
141 26-05-2019 20:00:00 18.36667 C 72.2500 % 13.29 C
142 26-05-2019 21:00:00 17.93333 C 70.7500 % 12.55 C
143 26-05-2019 22:00:00 17.68333 C 72.0833 % 12.59 C
144 26-05-2019 23:00:00 16.925 C 75.2500 % 12.52 C
145 27-05-2019 00:00:00 16.29167 C 78.4167 % 12.53 C
146 27-05-2019 01:00:00 15.75 C 80.8333 % 12.47 C
147 27-05-2019 02:00:00 14.7 C 83.2500 % 11.89 C
148 27-05-2019 03:00:00 14.1 C 84.4167 % 11.51 C
149 27-05-2019 04:00:00 13.85 C 87.3333 % 11.78 C
150 27-05-2019 05:00:00 14.19167 C 90.0000 % 12.58 C
Sensor: Nr:Datum:Temp:Feuchte:Taupunkt:
Aussen-T/F 151 27-05-2019 06:00:00 13.94167 C 92.8333 % 12.8 C
152 27-05-2019 07:00:00 14.20833 C 94.0000 % 13.26 C
153 27-05-2019 08:00:00 14.94167 C 93.2500 % 13.86 C
154 27-05-2019 09:00:00 15.61667 C 92.6667 % 14.43 C
155 27-05-2019 10:00:00 15.925 C 91.4167 % 14.53 C
156 27-05-2019 11:00:00 15.25 C 91.5833 % 13.89 C
157 27-05-2019 12:00:00 15.00833 C 93.1667 % 13.91 C
158 27-05-2019 13:00:00 14.39167 C 93.5000 % 13.36 C
159 27-05-2019 14:00:00 14.53333 C 94.3333 % 13.63 C
160 27-05-2019 15:00:00 14.825 C 93.9167 % 13.86 C
161 27-05-2019 16:00:00 15.475 C 93.9167 % 14.5 C
162 27-05-2019 17:00:00 16.075 C 92.5833 % 14.87 C
163 27-05-2019 18:00:00 16.275 C 93.0833 % 15.16 C
164 27-05-2019 19:00:00 16.73333 C 92.9167 % 15.58 C
165 27-05-2019 20:00:00 15.78333 C 91.5833 % 14.42 C
166 27-05-2019 21:00:00 14.68333 C 93.0833 % 13.58 C
167 27-05-2019 22:00:00 13.79167 C 94.2500 % 12.88 C
168 27-05-2019 23:00:00 13.4 C 95.0000 % 12.62 C
169 28-05-2019 00:00:00 12.96667 C 95.6667 % 12.29 C
170 28-05-2019 01:00:00 12.45 C 96.0000 % 11.83 C
171 28-05-2019 02:00:00 12.55 C 96.6667 % 12.03 C
172 28-05-2019 03:00:00 12.41667 C 96.5833 % 11.89 C
173 28-05-2019 04:00:00 11.55 C 96.4167 % 11 C
174 28-05-2019 05:00:00 11.80833 C 97.0000 % 11.35 C
175 28-05-2019 06:00:00 12.18333 C 97.0000 % 11.72 C
Sensor: Nr:Datum:Temp:Feuchte:Taupunkt:
Aussen-T/F 176 28-05-2019 07:00:00 12.51667 C 97.0000 % 12.05 C
177 28-05-2019 08:00:00 12.84167 C 97.0000 % 12.38 C
178 28-05-2019 09:00:00 13.425 C 95.5833 % 12.73 C
179 28-05-2019 10:00:00 14.74167 C 87.5000 % 12.69 C
180 28-05-2019 11:00:00 15.65 C 80.8333 % 12.37 C
181 28-05-2019 12:00:00 16.05 C 74.7500 % 11.57 C
182 28-05-2019 13:00:00 17.49167 C 66.4167 % 11.17 C
183 28-05-2019 14:00:00 16.04167 C 70.3333 % 10.65 C
184 28-05-2019 15:00:00 13.65833 C 84.3333 % 11.07 C
185 28-05-2019 16:00:00 15.80833 C 76.7500 % 11.74 C
186 28-05-2019 17:00:00 16.80833 C 69.8333 % 11.27 C
187 28-05-2019 18:00:00 16.78333 C 65.4167 % 10.27 C
188 28-05-2019 19:00:00 16.08333 C 68.0000 % 10.18 C
189 28-05-2019 20:00:00 14.10833 C 75.7500 % 9.9 C
190 28-05-2019 21:00:00 13.10833 C 81.6667 % 10.05 C
191 28-05-2019 22:00:00 12.15 C 87.5000 % 10.14 C
192 28-05-2019 23:00:00 11.78333 C 88.7500 % 9.99 C
193 29-05-2019 00:00:00 11.70833 C 85.8333 % 9.42 C
194 29-05-2019 01:00:00 11.73333 C 86.5833 % 9.57 C
195 29-05-2019 02:00:00 11.875 C 85.7500 % 9.57 C
196 29-05-2019 03:00:00 11.675 C 87.0000 % 9.59 C
197 29-05-2019 04:00:00 11.44167 C 86.4167 % 9.26 C
198 29-05-2019 05:00:00 11.08333 C 86.5833 % 8.93 C
199 29-05-2019 06:00:00 10.875 C 86.5833 % 8.73 C
200 29-05-2019 07:00:00 10.81667 C 86.0833 % 8.59 C
Sensor: Nr:Datum:Temp:Feuchte:Taupunkt:
Aussen-T/F 201 29-05-2019 08:00:00 11.225 C 84.0000 % 8.62 C
202 29-05-2019 09:00:00 12.225 C 80.3333 % 8.94 C
203 29-05-2019 10:00:00 13.83333 C 71.0833 % 8.69 C
204 29-05-2019 11:00:00 15.09167 C 63.7500 % 8.28 C
205 29-05-2019 12:00:00 15.725 C 60.0833 % 8.01 C
206 29-05-2019 13:00:00 16.48333 C 54.0833 % 7.18 C
207 29-05-2019 14:00:00 17.40833 C 48.4167 % 6.42 C
208 29-05-2019 15:00:00 18.99167 C 44.0000 % 6.48 C
209 29-05-2019 16:00:00 20.91667 C 37.9167 % 6.05 C
210 29-05-2019 17:00:00 22.38333 C 35.0000 % 6.19 C
211 29-05-2019 18:00:00 22.1 C 37.9167 % 7.1 C
212 29-05-2019 19:00:00 21.55 C 44.9167 % 9.09 C
213 29-05-2019 20:00:00 18.66667 C 61.5833 % 11.14 C
214 29-05-2019 21:00:00 15.49167 C 67.4167 % 9.49 C
215 29-05-2019 22:00:00 13.29167 C 77.5000 % 9.45 C
216 29-05-2019 23:00:00 12.91667 C 79.2500 % 9.41 C
217 30-05-2019 00:00:00 12.05833 C 81.2500 % 8.95 C
218 30-05-2019 01:00:00 11.44167 C 84.4167 % 8.91 C
219 30-05-2019 02:00:00 10.88333 C 86.1667 % 8.67 C
220 30-05-2019 03:00:00 9.95 C 88.5833 % 8.15 C
221 30-05-2019 04:00:00 9.56667 C 90.5833 % 8.1 C
222 30-05-2019 05:00:00 9.1 C 92.0000 % 7.87 C
223 30-05-2019 06:00:00 9.71667 C 93.5000 % 8.72 C
224 30-05-2019 07:00:00 10.925 C 91.4167 % 9.58 C
225 30-05-2019 08:00:00 12.375 C 85.9167 % 10.09 C
Sensor: Nr:Datum:Temp:Feuchte:Taupunkt:
Aussen-T/F 226 30-05-2019 09:00:00 14.10833 C 81.4167 % 10.98 C
227 30-05-2019 10:00:00 16.09167 C 76.2500 % 11.91 C
228 30-05-2019 11:00:00 18.18333 C 65.4167 % 11.6 C
229 30-05-2019 12:00:00 18.2 C 65.5000 % 11.63 C
230 30-05-2019 13:00:00 18.23333 C 70.0833 % 12.69 C
231 30-05-2019 14:00:00 19.425 C 67.1667 % 13.18 C
232 30-05-2019 15:00:00 21.175 C 64.3333 % 14.18 C
233 30-05-2019 16:00:00 21.95833 C 62.9167 % 14.57 C
234 30-05-2019 17:00:00 21.625 C 64.7500 % 14.7 C
235 30-05-2019 18:00:00 20.95833 C 67.8333 % 14.79 C
236 30-05-2019 19:00:00 19.95 C 72.0000 % 14.75 C
237 30-05-2019 20:00:00 18.94167 C 77.1667 % 14.85 C
238 30-05-2019 21:00:00 17.675 C 81.8333 % 14.53 C
239 30-05-2019 22:00:00 16.54167 C 85.6667 % 14.13 C
240 30-05-2019 23:00:00 15.89167 C 88.0000 % 13.91 C
241 31-05-2019 00:00:00 15.65 C 89.9167 % 14 C
242 31-05-2019 01:00:00 15.61667 C 90.8333 % 14.12 C
243 31-05-2019 02:00:00 15.46667 C 90.8333 % 13.98 C
244 31-05-2019 03:00:00 14.41667 C 92.0833 % 13.15 C
245 31-05-2019 04:00:00 13.56667 C 93.2500 % 12.5 C
246 31-05-2019 05:00:00 12.83333 C 94.5000 % 11.97 C
247 31-05-2019 06:00:00 12.75 C 95.0000 % 11.97 C
248 31-05-2019 07:00:00 13.1 C 95.9167 % 12.46 C
249 31-05-2019 08:00:00 14.175 C 95.7500 % 13.51 C
250 31-05-2019 09:00:00 16.24167 C 87.9167 % 14.24 C
Sensor: Nr:Datum:Temp:Feuchte:Taupunkt:
Aussen-T/F 251 31-05-2019 10:00:00 18.69167 C 74.5833 % 14.09 C
252 31-05-2019 11:00:00 20.225 C 68.2500 % 14.19 C
253 31-05-2019 12:00:00 21.375 C 65.3333 % 14.61 C
254 31-05-2019 13:00:00 22.725 C 60.4167 % 14.67 C
255 31-05-2019 14:00:00 23.925 C 55.5000 % 14.48 C
256 31-05-2019 15:00:00 25.28333 C 51.5833 % 14.6 C
257 31-05-2019 16:00:00 27.3 C 45.1667 % 14.38 C
258 31-05-2019 17:00:00 27.50833 C 44.6667 % 14.4 C
259 31-05-2019 18:00:00 27.58333 C 43.0833 % 13.91 C
260 31-05-2019 19:00:00 25.63333 C 51.5833 % 14.92 C
261 31-05-2019 20:00:00 23.64167 C 58.6667 % 15.07 C
262 31-05-2019 21:00:00 20.09167 C 71.7500 % 14.83 C
263 31-05-2019 22:00:00 17.725 C 78.6667 % 13.97 C
264 31-05-2019 23:00:00 15.91667 C 85.0833 % 13.41 C
265 01-06-2019 00:00:00 14.65 C 88.8333 % 12.83 C
266 01-06-2019 01:00:00 13.91667 C 91.5833 % 12.57 C
267 01-06-2019 02:00:00 13.325 C 92.6667 % 12.16 C
268 01-06-2019 03:00:00 12.83333 C 93.7500 % 11.85 C
269 01-06-2019 04:00:00 12.2 C 94.0000 % 11.26 C
270 01-06-2019 05:00:00 11.75833 C 94.9167 % 10.97 C
271 01-06-2019 06:00:00 11.825 C 95.3333 % 11.1 C
272 01-06-2019 07:00:00 12.61667 C 96.0000 % 12 C
273 01-06-2019 08:00:00 13.875 C 94.7500 % 13.05 C
274 01-06-2019 09:00:00 15.45 C 91.6667 % 14.1 C
275 01-06-2019 10:00:00 18.14167 C 84.5000 % 15.49 C
Sensor: Nr:Datum:Temp:Feuchte:Taupunkt:
Aussen-T/F 276 01-06-2019 11:00:00 20.91667 C 72.0000 % 15.68 C
277 01-06-2019 12:00:00 23.01667 C 63.7500 % 15.78 C
278 01-06-2019 13:00:00 24.31667 C 59.3333 % 15.88 C
279 01-06-2019 14:00:00 25.51667 C 55.6667 % 16 C
280 01-06-2019 15:00:00 27.83333 C 49.5000 % 16.3 C
281 01-06-2019 16:00:00 29.975 C 43.6667 % 16.27 C
282 01-06-2019 17:00:00 30.09167 C 42.1667 % 15.83 C
283 01-06-2019 18:00:00 30.23333 C 43.3333 % 16.38 C
284 01-06-2019 19:00:00 29.675 C 50.7500 % 18.38 C
285 01-06-2019 20:00:00 26.65833 C 58.9167 % 17.96 C
286 01-06-2019 21:00:00 22.7 C 68.0000 % 16.49 C
287 01-06-2019 22:00:00 20.00833 C 76.0833 % 15.67 C
288 01-06-2019 23:00:00 18.20833 C 82.2500 % 15.13 C
289 02-06-2019 00:00:00 16.75833 C 86.5000 % 14.49 C
290 02-06-2019 01:00:00 15.66667 C 89.3333 % 13.92 C
291 02-06-2019 02:00:00 14.925 C 91.7500 % 13.6 C
292 02-06-2019 03:00:00 14.325 C 93.0000 % 13.21 C
293 02-06-2019 04:00:00 13.81667 C 93.9167 % 12.85 C
294 02-06-2019 05:00:00 13.29167 C 94.5833 % 12.44 C
295 02-06-2019 06:00:00 13.40833 C 95.3333 % 12.68 C
296 02-06-2019 07:00:00 13.95833 C 95.9167 % 13.32 C
297 02-06-2019 08:00:00 15.03333 C 96.0000 % 14.4 C
298 02-06-2019 09:00:00 16.60833 C 95.9167 % 15.95 C
299 02-06-2019 10:00:00 19.64167 C 88.6667 % 17.72 C
300 02-06-2019 11:00:00 23.11667 C 77.1667 % 18.9 C
Sensor: Nr:Datum:Temp:Feuchte:Taupunkt:
Aussen-T/F 301 02-06-2019 12:00:00 26.66667 C 57.8333 % 17.67 C
302 02-06-2019 13:00:00 27.96667 C 46.3333 % 15.38 C
303 02-06-2019 14:00:00 29.1 C 45.5833 % 16.16 C
304 02-06-2019 15:00:00 31.04167 C 42.4167 % 16.77 C
305 02-06-2019 16:00:00 32.76667 C 37.2500 % 16.26 C
306 02-06-2019 17:00:00 33.1 C 37.2500 % 16.56 C
307 02-06-2019 18:00:00 33 C 37.9167 % 16.75 C
308 02-06-2019 19:00:00 32.23333 C 40.0000 % 16.91 C
309 02-06-2019 20:00:00 28.7 C 49.5000 % 17.09 C
310 02-06-2019 21:00:00 24.375 C 58.3333 % 15.67 C
311 02-06-2019 22:00:00 21.35833 C 67.9167 % 15.19 C
312 02-06-2019 23:00:00 19.30833 C 74.8333 % 14.73 C
313 03-06-2019 00:00:00 17.75833 C 79.8333 % 14.23 C
314 03-06-2019 01:00:00 16.825 C 82.3333 % 13.8 C
315 03-06-2019 02:00:00 16.15 C 84.9167 % 13.61 C
316 03-06-2019 03:00:00 15.51667 C 87.5833 % 13.47 C
317 03-06-2019 04:00:00 14.84167 C 89.9167 % 13.2 C
318 03-06-2019 05:00:00 14.775 C 91.8333 % 13.46 C
319 03-06-2019 06:00:00 15.23333 C 92.0000 % 13.94 C
320 03-06-2019 07:00:00 16.11667 C 91.5833 % 14.75 C
321 03-06-2019 08:00:00 17.63333 C 88.6667 % 15.74 C
322 03-06-2019 09:00:00 20.30833 C 85.2500 % 17.75 C
323 03-06-2019 10:00:00 21.325 C 86.5833 % 18.99 C
324 03-06-2019 11:00:00 23.475 C 74.5833 % 18.7 C
325 03-06-2019 12:00:00 26.39167 C 59.7500 % 17.93 C
Sensor: Nr:Datum:Temp:Feuchte:Taupunkt:
Aussen-T/F 326 03-06-2019 13:00:00 27.69167 C 52.7500 % 17.17 C
327 03-06-2019 14:00:00 28.44167 C 40.5000 % 13.73 C
328 03-06-2019 15:00:00 29.40833 C 35.0000 % 12.35 C
329 03-06-2019 16:00:00 26.71667 C 46.0833 % 14.17 C
330 03-06-2019 17:00:00 25.15833 C 57.9167 % 16.29 C
331 03-06-2019 18:00:00 23.71667 C 63.9167 % 16.48 C
332 03-06-2019 19:00:00 22.66667 C 68.0833 % 16.48 C
333 03-06-2019 20:00:00 22.29167 C 70.0000 % 16.56 C
334 03-06-2019 21:00:00 20.63333 C 74.5833 % 15.96 C
335 03-06-2019 22:00:00 19.40833 C 77.7500 % 15.42 C
336 03-06-2019 23:00:00 18.06667 C 81.5833 % 14.87 C
337 04-06-2019 00:00:00 16.71667 C 86.5000 % 14.45 C
338 04-06-2019 01:00:00 15.84167 C 89.7500 % 14.16 C
339 04-06-2019 02:00:00 15.15 C 91.8333 % 13.83 C
340 04-06-2019 03:00:00 14.41667 C 92.9167 % 13.29 C
341 04-06-2019 04:00:00 13.65833 C 93.5000 % 12.63 C
342 04-06-2019 05:00:00 13.2 C 94.2500 % 12.3 C
343 04-06-2019 06:00:00 13.275 C 95.1667 % 12.52 C
344 04-06-2019 07:00:00 14.525 C 95.0000 % 13.73 C
345 04-06-2019 08:00:00 16.05 C 91.9167 % 14.74 C
346 04-06-2019 09:00:00 17.45 C 88.6667 % 15.56 C
347 04-06-2019 10:00:00 20.16667 C 78.6667 % 16.34 C
348 04-06-2019 11:00:00 22.35833 C 71.0833 % 16.86 C
349 04-06-2019 12:00:00 23.89167 C 68.1667 % 17.66 C
350 04-06-2019 13:00:00 25.74167 C 60.4167 % 17.5 C
Sensor: Nr:Datum:Temp:Feuchte:Taupunkt:
Aussen-T/F 351 04-06-2019 14:00:00 27.4 C 54.5833 % 17.44 C
352 04-06-2019 15:00:00 28.7 C 52.2500 % 17.95 C
353 04-06-2019 16:00:00 30.56667 C 49.5833 % 18.82 C
354 04-06-2019 17:00:00 31.925 C 44.4167 % 18.3 C
355 04-06-2019 18:00:00 31.24167 C 47.4167 % 18.72 C
356 04-06-2019 19:00:00 29.25 C 54.9167 % 19.25 C
357 04-06-2019 20:00:00 26.51667 C 62.5833 % 18.79 C
358 04-06-2019 21:00:00 23.36667 C 67.6667 % 17.05 C
359 04-06-2019 22:00:00 22.025 C 70.6667 % 16.45 C
360 04-06-2019 23:00:00 22.70833 C 64.8333 % 15.75 C
361 05-06-2019 00:00:00 23.28333 C 63.0000 % 15.85 C
362 05-06-2019 01:00:00 21.33333 C 69.9167 % 15.62 C
363 05-06-2019 02:00:00 20.575 C 74.1667 % 15.81 C
364 05-06-2019 03:00:00 19.35 C 77.8333 % 15.38 C
365 05-06-2019 04:00:00 18.80833 C 80.2500 % 15.33 C
366 05-06-2019 05:00:00 17.44167 C 83.8333 % 14.68 C
367 05-06-2019 06:00:00 17.69167 C 85.2500 % 15.18 C
368 05-06-2019 07:00:00 17.98333 C 86.5833 % 15.71 C
369 05-06-2019 08:00:00 18.38333 C 88.0000 % 16.36 C
370 05-06-2019 09:00:00 21.025 C 76.4167 % 16.72 C
371 05-06-2019 10:00:00 22.73333 C 70.5833 % 17.11 C
372 05-06-2019 11:00:00 23.64167 C 66.3333 % 17 C
373 05-06-2019 12:00:00 24.34167 C 63.2500 % 16.91 C
374 05-06-2019 13:00:00 25.925 C 60.1667 % 17.61 C
375 05-06-2019 14:00:00 27.25833 C 56.0833 % 17.74 C
Sensor: Nr:Datum:Temp:Feuchte:Taupunkt:
Aussen-T/F 376 05-06-2019 15:00:00 29.5 C 49.5833 % 17.85 C
377 05-06-2019 16:00:00 31.35 C 41.7500 % 16.8 C
378 05-06-2019 17:00:00 30.43333 C 46.7500 % 17.76 C
379 05-06-2019 18:00:00 28.60833 C 56.1667 % 19.01 C
380 05-06-2019 19:00:00 29.73333 C 54.6667 % 19.62 C
381 05-06-2019 20:00:00 27.55833 C 56.5833 % 18.16 C
382 05-06-2019 21:00:00 23.44167 C 68.3333 % 17.27 C
383 05-06-2019 22:00:00 21.625 C 75.6667 % 17.14 C
384 05-06-2019 23:00:00 20.83333 C 77.2500 % 16.7 C
385 06-06-2019 00:00:00 21.575 C 69.2500 % 15.7 C
386 06-06-2019 01:00:00 18.925 C 81.5833 % 15.71 C
387 06-06-2019 02:00:00 17.10833 C 91.9167 % 15.78 C
388 06-06-2019 03:00:00 16.70833 C 93.6667 % 15.68 C
389 06-06-2019 04:00:00 16.48333 C 94.5833 % 15.61 C
390 06-06-2019 05:00:00 15.51667 C 93.6667 % 14.5 C
391 06-06-2019 06:00:00 13.94167 C 92.3333 % 12.72 C
392 06-06-2019 07:00:00 13.19167 C 89.6667 % 11.53 C
393 06-06-2019 08:00:00 13.325 C 84.5833 % 10.78 C
394 06-06-2019 09:00:00 13.10833 C 81.1667 % 9.96 C
395 06-06-2019 10:00:00 13.80833 C 80.0000 % 10.42 C
396 06-06-2019 11:00:00 14.93333 C 75.5000 % 10.64 C
397 06-06-2019 12:00:00 15.40833 C 73.2500 % 10.65 C
398 06-06-2019 13:00:00 16.49167 C 69.3333 % 10.86 C
399 06-06-2019 14:00:00 17.025 C 68.1667 % 11.12 C
400 06-06-2019 15:00:00 17.75833 C 66.4167 % 11.42 C
Sensor: Nr:Datum:Temp:Feuchte:Taupunkt:
Aussen-T/F 401 06-06-2019 16:00:00 18 C 65.5000 % 11.44 C
402 06-06-2019 17:00:00 16.73333 C 69.1667 % 11.06 C
403 06-06-2019 18:00:00 16.975 C 69.9167 % 11.45 C
404 06-06-2019 19:00:00 18.26667 C 63.5833 % 11.25 C
405 06-06-2019 20:00:00 17.725 C 65.3333 % 11.14 C
406 06-06-2019 21:00:00 15.43333 C 75.4167 % 11.11 C
407 06-06-2019 22:00:00 12.75 C 83.8333 % 10.09 C
408 06-06-2019 23:00:00 11.43333 C 87.5000 % 9.43 C
409 07-06-2019 00:00:00 10.475 C 90.4167 % 8.97 C
410 07-06-2019 01:00:00 9.875 C 92.1667 % 8.66 C
411 07-06-2019 02:00:00 9.425 C 93.0833 % 8.36 C
412 07-06-2019 03:00:00 9.56667 C 94.5000 % 8.73 C
413 07-06-2019 04:00:00 10.13333 C 94.6667 % 9.32 C
414 07-06-2019 05:00:00 9.23333 C 94.3333 % 8.37 C
415 07-06-2019 06:00:00 9.60833 C 95.7500 % 8.96 C
416 07-06-2019 07:00:00 10.38333 C 96.0000 % 9.77 C
417 07-06-2019 08:00:00 11.86667 C 92.5833 % 10.7 C
418 07-06-2019 09:00:00 13.75833 C 84.1667 % 11.13 C
419 07-06-2019 10:00:00 16.65 C 75.8333 % 12.37 C
420 07-06-2019 11:00:00 18.75833 C 65.5000 % 12.16 C
421 07-06-2019 12:00:00 19.9 C 63.4167 % 12.75 C
422 07-06-2019 13:00:00 20.89167 C 64.3333 % 13.91 C
423 07-06-2019 14:00:00 21.09167 C 68.1667 % 15 C
424 07-06-2019 15:00:00 24.175 C 57.1667 % 15.17 C
425 07-06-2019 16:00:00 25.96667 C 50.5833 % 14.92 C
Sensor: Nr:Datum:Temp:Feuchte:Taupunkt:
Aussen-T/F 426 07-06-2019 17:00:00 25.36667 C 57.9167 % 16.48 C
427 07-06-2019 18:00:00 21.74167 C 58.5833 % 13.27 C
428 07-06-2019 19:00:00 17.18333 C 62.6667 % 10.01 C
429 07-06-2019 20:00:00 15.41667 C 71.6667 % 10.33 C
430 07-06-2019 21:00:00 14.95 C 72.9167 % 10.14 C
431 07-06-2019 22:00:00 14.8 C 69.8333 % 9.35 C
432 07-06-2019 23:00:00 15.125 C 66.5000 % 8.94 C
433 08-06-2019 00:00:00 15.46667 C 66.4167 % 9.24 C
434 08-06-2019 01:00:00 15.61667 C 65.2500 % 9.12 C
435 08-06-2019 02:00:00 15.34167 C 67.0833 % 9.27 C
436 08-06-2019 03:00:00 15.06667 C 67.0000 % 8.99 C
437 08-06-2019 04:00:00 14.86667 C 64.0000 % 8.13 C
438 08-06-2019 05:00:00 14.10833 C 63.3333 % 7.26 C
439 08-06-2019 06:00:00 13.325 C 66.7500 % 7.28 C
440 08-06-2019 07:00:00 13.69167 C 65.5000 % 7.35 C
441 08-06-2019 08:00:00 14.29167 C 65.3333 % 7.88 C
442 08-06-2019 09:00:00 14.575 C 66.0833 % 8.32 C
443 08-06-2019 10:00:00 14.90833 C 66.5833 % 8.75 C
444 08-06-2019 11:00:00 15.70833 C 64.1667 % 8.96 C
445 08-06-2019 12:00:00 16.525 C 61.5000 % 9.11 C
446 08-06-2019 13:00:00 17.38333 C 57.6667 % 8.96 C
447 08-06-2019 14:00:00 18.325 C 55.7500 % 9.34 C
448 08-06-2019 15:00:00 19.15 C 52.5000 % 9.21 C
449 08-06-2019 16:00:00 19.65833 C 50.8333 % 9.2 C
450 08-06-2019 17:00:00 19.925 C 49.5000 % 9.05 C
Sensor: Nr:Datum:Temp:Feuchte:Taupunkt:
Aussen-T/F 451 08-06-2019 18:00:00 19.95833 C 49.4167 % 9.06 C
452 08-06-2019 19:00:00 18.98333 C 54.5000 % 9.61 C
453 08-06-2019 20:00:00 17.61667 C 62.2500 % 10.32 C
454 08-06-2019 21:00:00 16.11667 C 70.0000 % 10.65 C
455 08-06-2019 22:00:00 14.39167 C 74.5833 % 9.94 C
456 08-06-2019 23:00:00 12.65833 C 80.5833 % 9.41 C
457 09-06-2019 00:00:00 11.66667 C 84.6667 % 9.17 C
458 09-06-2019 01:00:00 11.08333 C 86.9167 % 8.99 C
459 09-06-2019 02:00:00 10.925 C 87.3333 % 8.91 C
460 09-06-2019 03:00:00 10.28333 C 89.0833 % 8.57 C
461 09-06-2019 04:00:00 9.4 C 90.3333 % 7.9 C
462 09-06-2019 05:00:00 8.675 C 92.3333 % 7.5 C
463 09-06-2019 06:00:00 8.63333 C 93.4167 % 7.63 C
464 09-06-2019 07:00:00 9.68333 C 94.4167 % 8.83 C
465 09-06-2019 08:00:00 11.03333 C 94.2500 % 10.15 C
466 09-06-2019 09:00:00 12.80833 C 90.8333 % 11.35 C
467 09-06-2019 10:00:00 16.55 C 73.0000 % 11.7 C
468 09-06-2019 11:00:00 18.86667 C 57.5833 % 10.32 C
469 09-06-2019 12:00:00 19.76667 C 53.6667 % 10.11 C
470 09-06-2019 13:00:00 20.71667 C 51.6667 % 10.42 C
471 09-06-2019 14:00:00 21.925 C 50.5000 % 11.19 C
472 09-06-2019 15:00:00 22.45833 C 50.3333 % 11.63 C
473 09-06-2019 16:00:00 22.79167 C 50.6667 % 12.03 C
474 09-06-2019 17:00:00 22.7 C 51.5833 % 12.22 C
475 09-06-2019 18:00:00 23.09167 C 50.4167 % 12.23 C
Sensor: Nr:Datum:Temp:Feuchte:Taupunkt:
Aussen-T/F 476 09-06-2019 19:00:00 21.64167 C 63.5000 % 14.42 C
477 09-06-2019 20:00:00 19.74167 C 69.0833 % 13.91 C
478 09-06-2019 21:00:00 18.86667 C 72.1667 % 13.75 C
479 09-06-2019 22:00:00 18.36667 C 74.5833 % 13.77 C
480 09-06-2019 23:00:00 17.95 C 76.1667 % 13.69 C
481 10-06-2019 00:00:00 17.525 C 77.8333 % 13.62 C
482 10-06-2019 01:00:00 16.95833 C 77.6667 % 13.03 C
483 10-06-2019 02:00:00 16.08333 C 79.7500 % 12.59 C
484 10-06-2019 03:00:00 14.94167 C 84.7500 % 12.4 C
485 10-06-2019 04:00:00 14.625 C 86.5000 % 12.4 C
486 10-06-2019 05:00:00 14.775 C 87.5000 % 12.72 C
487 10-06-2019 06:00:00 14.825 C 88.5000 % 12.94 C
488 10-06-2019 07:00:00 15.5 C 87.4167 % 13.42 C
489 10-06-2019 08:00:00 17.725 C 80.2500 % 14.28 C
490 10-06-2019 09:00:00 18.94167 C 75.8333 % 14.58 C
491 10-06-2019 10:00:00 19.85 C 73.1667 % 14.91 C
492 10-06-2019 11:00:00 21.15833 C 68.5000 % 15.13 C
493 10-06-2019 12:00:00 22.34167 C 63.6667 % 15.12 C
494 10-06-2019 13:00:00 23.06667 C 61.5833 % 15.29 C
495 10-06-2019 14:00:00 23.225 C 62.5833 % 15.69 C
496 10-06-2019 15:00:00 23.225 C 62.9167 % 15.77 C
497 10-06-2019 16:00:00 24.06667 C 59.8333 % 15.78 C
498 10-06-2019 17:00:00 23.65 C 60.7500 % 15.62 C
499 10-06-2019 18:00:00 23.19167 C 61.9167 % 15.49 C
500 10-06-2019 19:00:00 21.7 C 64.6667 % 14.76 C
Sensor: Nr:Datum:Temp:Feuchte:Taupunkt:
Aussen-T/F 501 10-06-2019 20:00:00 20.61667 C 69.9167 % 14.94 C
502 10-06-2019 21:00:00 19.38333 C 74.6667 % 14.77 C
503 10-06-2019 22:00:00 17.975 C 79.5000 % 14.38 C
504 10-06-2019 23:00:00 17.09167 C 82.5000 % 14.09 C
505 11-06-2019 00:00:00 16.55833 C 85.5000 % 14.12 C
506 11-06-2019 01:00:00 16.38333 C 86.8333 % 14.19 C
507 11-06-2019 02:00:00 16.15833 C 86.2500 % 13.86 C
508 11-06-2019 03:00:00 15.29167 C 90.6667 % 13.78 C
509 11-06-2019 04:00:00 14.6 C 93.0833 % 13.5 C
510 11-06-2019 05:00:00 14.21667 C 94.0000 % 13.27 C
511 11-06-2019 06:00:00 14.15833 C 94.8333 % 13.34 C
512 11-06-2019 07:00:00 14.5 C 95.3333 % 13.76 C
513 11-06-2019 08:00:00 15.01667 C 95.5833 % 14.32 C
514 11-06-2019 09:00:00 15.34167 C 93.8333 % 14.35 C
515 11-06-2019 10:00:00 16.16667 C 90.7500 % 14.65 C
516 11-06-2019 11:00:00 16.925 C 85.2500 % 14.43 C
517 11-06-2019 12:00:00 17.81667 C 78.5833 % 14.05 C
518 11-06-2019 13:00:00 19.09167 C 71.9167 % 13.91 C
519 11-06-2019 14:00:00 20.24167 C 66.0833 % 13.71 C
520 11-06-2019 15:00:00 21.31667 C 61.8333 % 13.7 C
521 11-06-2019 16:00:00 20.94167 C 66.5000 % 14.47 C
522 11-06-2019 17:00:00 19.28333 C 79.3333 % 15.62 C
523 11-06-2019 18:00:00 18.75833 C 82.1667 % 15.65 C
524 11-06-2019 19:00:00 20.35 C 71.0000 % 14.92 C
525 11-06-2019 20:00:00 19.19167 C 79.8333 % 15.63 C
Sensor: Nr:Datum:Temp:Feuchte:Taupunkt:
Aussen-T/F 526 11-06-2019 21:00:00 17.76667 C 83.1667 % 14.87 C
527 11-06-2019 22:00:00 16.79167 C 84.7500 % 14.21 C
528 11-06-2019 23:00:00 15.70833 C 86.5000 % 13.46 C
529 12-06-2019 00:00:00 15.16667 C 87.0000 % 13.02 C
530 12-06-2019 01:00:00 14.39167 C 88.8333 % 12.57 C
531 12-06-2019 02:00:00 14.59167 C 90.0000 % 12.97 C
532 12-06-2019 03:00:00 14.525 C 90.7500 % 13.03 C
533 12-06-2019 04:00:00 14.39167 C 91.0000 % 12.94 C
534 12-06-2019 05:00:00 14.125 C 91.7500 % 12.8 C
535 12-06-2019 06:00:00 13.95833 C 92.4167 % 12.75 C
536 12-06-2019 07:00:00 14.875 C 91.3333 % 13.48 C
537 12-06-2019 08:00:00 15.81667 C 88.6667 % 13.95 C
538 12-06-2019 09:00:00 16.53333 C 85.8333 % 14.15 C
539 12-06-2019 10:00:00 15.15 C 91.9167 % 13.85 C
540 12-06-2019 11:00:00 13.975 C 93.4167 % 12.93 C
541 12-06-2019 12:00:00 14.40833 C 95.0000 % 13.62 C
542 12-06-2019 13:00:00 15.325 C 93.0000 % 14.2 C
543 12-06-2019 14:00:00 17.175 C 83.9167 % 14.43 C
544 12-06-2019 15:00:00 18.2 C 77.9167 % 14.29 C
545 12-06-2019 16:00:00 20.125 C 66.5833 % 13.71 C
546 12-06-2019 17:00:00 21.81667 C 59.0000 % 13.45 C
547 12-06-2019 18:00:00 22.64167 C 53.9167 % 12.84 C
548 12-06-2019 19:00:00 21.925 C 53.0833 % 11.94 C
549 12-06-2019 20:00:00 21.23333 C 62.8333 % 13.87 C
550 12-06-2019 21:00:00 17.83333 C 74.5000 % 13.24 C
Sensor: Nr:Datum:Temp:Feuchte:Taupunkt:
Aussen-T/F 551 12-06-2019 22:00:00 14.38333 C 84.7500 % 11.85 C
552 12-06-2019 23:00:00 13.15833 C 88.2500 % 11.26 C
553 13-06-2019 00:00:00 12.55833 C 89.5833 % 10.89 C
554 13-06-2019 01:00:00 11.68333 C 90.7500 % 10.22 C
555 13-06-2019 02:00:00 10.9 C 92.4167 % 9.72 C
556 13-06-2019 03:00:00 10.29167 C 93.5833 % 9.3 C
557 13-06-2019 04:00:00 9.775 C 94.0000 % 8.86 C
558 13-06-2019 05:00:00 9.45833 C 94.9167 % 8.69 C
559 13-06-2019 06:00:00 9.50833 C 95.3333 % 8.8 C
560 13-06-2019 07:00:00 10.31667 C 96.0000 % 9.71 C
561 13-06-2019 08:00:00 11.75 C 95.6667 % 11.08 C
562 13-06-2019 09:00:00 15.15833 C 79.0833 % 11.56 C
563 13-06-2019 10:00:00 17.91667 C 65.0833 % 11.27 C
564 13-06-2019 11:00:00 19.15 C 60.8333 % 11.41 C
565 13-06-2019 12:00:00 19.41667 C 57.0000 % 10.68 C
566 13-06-2019 13:00:00 20.875 C 53.3333 % 11.04 C
567 13-06-2019 14:00:00 21.26667 C 51.1667 % 10.78 C
568 13-06-2019 15:00:00 22.13333 C 48.6667 % 10.82 C
569 13-06-2019 16:00:00 23.85833 C 42.2500 % 10.27 C
570 13-06-2019 17:00:00 24.41667 C 41.5833 % 10.53 C
571 13-06-2019 18:00:00 24.325 C 43.0833 % 10.98 C
572 13-06-2019 19:00:00 20.40833 C 65.3333 % 13.69 C
573 13-06-2019 20:00:00 15.975 C 89.5000 % 14.25 C
574 13-06-2019 21:00:00 15.11667 C 89.0000 % 13.32 C
575 13-06-2019 22:00:00 13.21667 C 91.6667 % 11.89 C
Sensor: Nr:Datum:Temp:Feuchte:Taupunkt:
Aussen-T/F 576 13-06-2019 23:00:00 12.78333 C 93.8333 % 11.82 C
577 14-06-2019 00:00:00 12.06667 C 94.1667 % 11.16 C
578 14-06-2019 01:00:00 11.73333 C 95.1667 % 10.99 C
579 14-06-2019 02:00:00 12.16667 C 96.0000 % 11.55 C
580 14-06-2019 03:00:00 12.00833 C 96.0000 % 11.39 C
581 14-06-2019 04:00:00 11.59167 C 96.0000 % 10.98 C
582 14-06-2019 05:00:00 11.41667 C 96.4167 % 10.87 C
583 14-06-2019 06:00:00 11.33333 C 96.7500 % 10.84 C
584 14-06-2019 07:00:00 11.43333 C 97.0000 % 10.97 C
585 14-06-2019 08:00:00 12.15 C 97.0000 % 11.69 C
586 14-06-2019 09:00:00 14.29167 C 97.8333 % 13.95 C
587 14-06-2019 10:00:00 17.16667 C 98.0000 % 16.85 C
588 14-06-2019 11:00:00 18.61667 C 96.0000 % 17.97 C
589 14-06-2019 12:00:00 21.65833 C 71.3333 % 16.25 C
590 14-06-2019 13:00:00 24.26667 C 57.5833 % 15.37 C
591 14-06-2019 14:00:00 26 C 50.2500 % 14.85 C
592 14-06-2019 15:00:00 26.35 C 50.6667 % 15.3 C
593 14-06-2019 16:00:00 25.95 C 57.5000 % 16.91 C
594 14-06-2019 17:00:00 25.23333 C 65.7500 % 18.37 C
595 14-06-2019 18:00:00 24.49167 C 68.7500 % 18.37 C
596 14-06-2019 19:00:00 22.55 C 74.2500 % 17.74 C
597 14-06-2019 20:00:00 20.29167 C 78.3333 % 16.4 C
598 14-06-2019 21:00:00 19.08333 C 83.5000 % 16.22 C
599 14-06-2019 22:00:00 18.79167 C 83.7500 % 15.98 C
600 14-06-2019 23:00:00 18.6 C 86.5000 % 16.3 C
Sensor: Nr:Datum:Temp:Feuchte:Taupunkt:
Aussen-T/F 601 15-06-2019 00:00:00 17.59167 C 91.5833 % 16.21 C
602 15-06-2019 01:00:00 16.49167 C 93.1667 % 15.38 C
603 15-06-2019 02:00:00 15.68333 C 94.1667 % 14.75 C
604 15-06-2019 03:00:00 15.16667 C 95.0833 % 14.38 C
605 15-06-2019 04:00:00 15.14167 C 95.6667 % 14.45 C
606 15-06-2019 05:00:00 15.01667 C 96.0833 % 14.4 C
607 15-06-2019 06:00:00 15.54167 C 96.4167 % 14.97 C
608 15-06-2019 07:00:00 16.175 C 97.0000 % 15.7 C
609 15-06-2019 08:00:00 16.94167 C 96.4167 % 16.37 C
610 15-06-2019 09:00:00 18.45833 C 89.9167 % 16.77 C
611 15-06-2019 10:00:00 19.93333 C 81.8333 % 16.74 C
612 15-06-2019 11:00:00 20.8 C 72.4167 % 15.66 C
613 15-06-2019 12:00:00 21.60833 C 69.5833 % 15.81 C
614 15-06-2019 13:00:00 21.28333 C 73.9167 % 16.44 C
615 15-06-2019 14:00:00 21.65833 C 73.5000 % 16.72 C
616 15-06-2019 15:00:00 22.11667 C 69.6667 % 16.31 C
617 15-06-2019 16:00:00 23.775 C 63.6667 % 16.48 C
618 15-06-2019 17:00:00 25.35833 C 54.7500 % 15.59 C
619 15-06-2019 18:00:00 26.24167 C 48.8333 % 14.63 C
620 15-06-2019 19:00:00 25.35833 C 54.0833 % 15.4 C
621 15-06-2019 20:00:00 23.43333 C 65.5000 % 16.6 C
622 15-06-2019 21:00:00 21.01667 C 71.0833 % 15.58 C
623 15-06-2019 22:00:00 18.48333 C 78.6667 % 14.71 C
624 15-06-2019 23:00:00 17.625 C 81.7500 % 14.47 C
625 16-06-2019 00:00:00 17.3 C 83.2500 % 14.43 C
Sensor: Nr:Datum:Temp:Feuchte:Taupunkt:
Aussen-T/F 626 16-06-2019 01:00:00 17.4 C 83.0833 % 14.5 C
627 16-06-2019 02:00:00 17.19167 C 83.9167 % 14.45 C
628 16-06-2019 03:00:00 16.9 C 84.5000 % 14.27 C
629 16-06-2019 04:00:00 17.08333 C 82.4167 % 14.07 C
630 16-06-2019 05:00:00 16.3 C 85.1667 % 13.81 C
631 16-06-2019 06:00:00 15.46667 C 89.4167 % 13.73 C
632 16-06-2019 07:00:00 15.55 C 91.3333 % 14.14 C
633 16-06-2019 08:00:00 16.04167 C 89.7500 % 14.36 C
634 16-06-2019 09:00:00 17.04167 C 81.2500 % 13.81 C
635 16-06-2019 10:00:00 19.3 C 69.7500 % 13.64 C
636 16-06-2019 11:00:00 20.84167 C 60.6667 % 12.96 C
637 16-06-2019 12:00:00 21.34167 C 59.1667 % 13.05 C
638 16-06-2019 13:00:00 22.35 C 54.7500 % 12.8 C
639 16-06-2019 14:00:00 22.56667 C 55.9167 % 13.33 C
640 16-06-2019 15:00:00 23.03333 C 54.9167 % 13.48 C
641 16-06-2019 16:00:00 23.225 C 55.0833 % 13.71 C
642 16-06-2019 17:00:00 22.275 C 58.5833 % 13.77 C
643 16-06-2019 18:00:00 24.04167 C 51.7500 % 13.51 C
644 16-06-2019 19:00:00 23.55 C 54.6667 % 13.89 C
645 16-06-2019 20:00:00 22.61667 C 57.8333 % 13.89 C
646 16-06-2019 21:00:00 20.29167 C 67.7500 % 14.14 C
647 16-06-2019 22:00:00 17.21667 C 76.5833 % 13.07 C
648 16-06-2019 23:00:00 15.35 C 82.7500 % 12.43 C
649 17-06-2019 00:00:00 14.14167 C 85.6667 % 11.78 C
650 17-06-2019 01:00:00 13.31667 C 88.2500 % 11.42 C
Sensor: Nr:Datum:Temp:Feuchte:Taupunkt:
Aussen-T/F 651 17-06-2019 02:00:00 12.625 C 90.4167 % 11.1 C
652 17-06-2019 03:00:00 11.95833 C 91.8333 % 10.67 C
653 17-06-2019 04:00:00 11.43333 C 93.0000 % 10.34 C
654 17-06-2019 05:00:00 11.075 C 93.9167 % 10.13 C
655 17-06-2019 06:00:00 11.08333 C 95.0000 % 10.31 C
656 17-06-2019 07:00:00 11.575 C 95.2500 % 10.84 C
657 17-06-2019 08:00:00 12.66667 C 96.0000 % 12.05 C
658 17-06-2019 09:00:00 14.46667 C 94.8333 % 13.65 C
659 17-06-2019 10:00:00 18.59167 C 82.0833 % 15.48 C
660 17-06-2019 11:00:00 22.31667 C 63.0000 % 14.93 C
661 17-06-2019 12:00:00 23.475 C 58.1667 % 14.78 C
662 17-06-2019 13:00:00 24.45833 C 54.7500 % 14.76 C
663 17-06-2019 14:00:00 25.15833 C 50.7500 % 14.23 C
664 17-06-2019 15:00:00 25.26667 C 50.6667 % 14.31 C
665 17-06-2019 16:00:00 26.71667 C 49.6667 % 15.33 C
666 17-06-2019 17:00:00 28.43333 C 42.1667 % 14.34 C
667 17-06-2019 18:00:00 27.90833 C 46.3333 % 15.33 C
668 17-06-2019 19:00:00 27.64167 C 47.5833 % 15.5 C
669 17-06-2019 20:00:00 23.58333 C 61.1667 % 15.67 C
670 17-06-2019 21:00:00 20.78333 C 68.0833 % 14.68 C
671 17-06-2019 22:00:00 18.73333 C 75.2500 % 14.26 C
672 17-06-2019 23:00:00 17.06667 C 80.8333 % 13.75 C
673 18-06-2019 00:00:00 15.86667 C 84.5000 % 13.26 C
674 18-06-2019 01:00:00 15.09167 C 87.2500 % 12.99 C
675 18-06-2019 02:00:00 14.43333 C 89.1667 % 12.67 C
Sensor: Nr:Datum:Temp:Feuchte:Taupunkt:
Aussen-T/F 676 18-06-2019 03:00:00 13.8 C 91.3333 % 12.41 C
677 18-06-2019 04:00:00 13.8 C 92.2500 % 12.56 C
678 18-06-2019 05:00:00 13.625 C 92.4167 % 12.42 C
679 18-06-2019 06:00:00 13.65 C 93.7500 % 12.66 C
680 18-06-2019 07:00:00 14.75 C 92.1667 % 13.49 C
681 18-06-2019 08:00:00 16.01667 C 90.0000 % 14.38 C
682 18-06-2019 09:00:00 17.65 C 88.2500 % 15.68 C
683 18-06-2019 10:00:00 20.80833 C 82.3333 % 17.69 C
684 18-06-2019 11:00:00 24.26667 C 67.8333 % 17.94 C
685 18-06-2019 12:00:00 26.78333 C 53.9167 % 16.67 C
686 18-06-2019 13:00:00 28.125 C 47.0000 % 15.75 C
687 18-06-2019 14:00:00 28.825 C 45.3333 % 15.82 C
688 18-06-2019 15:00:00 29.825 C 43.5000 % 16.08 C
689 18-06-2019 16:00:00 29.575 C 46.0833 % 16.76 C
690 18-06-2019 17:00:00 29.48333 C 56.4167 % 19.9 C
691 18-06-2019 18:00:00 29.725 C 55.1667 % 19.76 C
692 18-06-2019 19:00:00 27.95 C 60.5833 % 19.62 C
693 18-06-2019 20:00:00 26.03333 C 63.7500 % 18.63 C
694 18-06-2019 21:00:00 23.73333 C 68.0833 % 17.49 C
695 18-06-2019 22:00:00 21.45 C 74.5833 % 16.75 C
696 18-06-2019 23:00:00 19.83333 C 79.5833 % 16.2 C
697 19-06-2019 00:00:00 18.48333 C 83.5833 % 15.65 C
698 19-06-2019 01:00:00 17.61667 C 86.5833 % 15.35 C
699 19-06-2019 02:00:00 17.39167 C 88.3333 % 15.44 C
700 19-06-2019 03:00:00 16.53333 C 89.8333 % 14.86 C
Sensor: Nr:Datum:Temp:Feuchte:Taupunkt:
Aussen-T/F 701 19-06-2019 04:00:00 15.775 C 91.0000 % 14.31 C
702 19-06-2019 05:00:00 15.19167 C 92.8333 % 14.04 C
703 19-06-2019 06:00:00 14.99167 C 93.6667 % 13.98 C
704 19-06-2019 07:00:00 15.425 C 94.8333 % 14.6 C
705 19-06-2019 08:00:00 16.54167 C 95.0000 % 15.74 C
706 19-06-2019 09:00:00 18.46667 C 93.8333 % 17.45 C
707 19-06-2019 10:00:00 23.44167 C 73.4167 % 18.41 C
708 19-06-2019 11:00:00 26.775 C 54.0833 % 16.71 C
709 19-06-2019 12:00:00 26.475 C 59.5833 % 17.97 C
710 19-06-2019 13:00:00 26 C 63.0000 % 18.41 C
711 19-06-2019 14:00:00 27.00833 C 53.5000 % 16.76 C
712 19-06-2019 15:00:00 27.25 C 56.8333 % 17.94 C
713 19-06-2019 16:00:00 29.925 C 48.6667 % 17.94 C
714 19-06-2019 17:00:00 31.25833 C 41.2500 % 16.53 C
715 19-06-2019 18:00:00 28.4 C 56.5833 % 18.94 C
716 19-06-2019 19:00:00 28.94167 C 53.0833 % 18.42 C
717 19-06-2019 20:00:00 25.31667 C 65.3333 % 18.34 C
718 19-06-2019 21:00:00 23.275 C 70.8333 % 17.68 C
719 19-06-2019 22:00:00 21.68333 C 74.0000 % 16.85 C
720 19-06-2019 23:00:00 19.925 C 79.8333 % 16.34 C
721 20-06-2019 00:00:00 18.75 C 83.3333 % 15.87 C
722 20-06-2019 01:00:00 17.98333 C 86.2500 % 15.65 C
723 20-06-2019 02:00:00 17.45833 C 88.7500 % 15.58 C
724 20-06-2019 03:00:00 17.7 C 89.5000 % 15.95 C
725 20-06-2019 04:00:00 17.31667 C 89.5833 % 15.59 C
Sensor: Nr:Datum:Temp:Feuchte:Taupunkt:
Aussen-T/F 726 20-06-2019 05:00:00 16.68333 C 91.3333 % 15.26 C
727 20-06-2019 06:00:00 16.85833 C 92.3333 % 15.61 C
728 20-06-2019 07:00:00 17.73333 C 89.2500 % 15.94 C
729 20-06-2019 08:00:00 19.45 C 81.4167 % 16.18 C
730 20-06-2019 09:00:00 20.2 C 75.9167 % 15.82 C
731 20-06-2019 10:00:00 21.30833 C 70.7500 % 15.78 C
732 20-06-2019 11:00:00 21.89167 C 69.9167 % 16.15 C
733 20-06-2019 12:00:00 22.65 C 66.5000 % 16.09 C
734 20-06-2019 13:00:00 23.24167 C 64.7500 % 16.24 C
735 20-06-2019 14:00:00 24.61667 C 58.7500 % 16.01 C
736 20-06-2019 15:00:00 21.45833 C 75.0833 % 16.86 C
737 20-06-2019 16:00:00 22.75 C 71.9167 % 17.42 C
738 20-06-2019 17:00:00 21.25833 C 76.5000 % 16.96 C
739 20-06-2019 18:00:00 20 C 81.0833 % 16.66 C
740 20-06-2019 19:00:00 18.75833 C 81.8333 % 15.59 C
741 20-06-2019 20:00:00 18.66667 C 82.3333 % 15.6 C
742 20-06-2019 21:00:00 18.21667 C 84.0833 % 15.48 C
743 20-06-2019 22:00:00 16.9 C 87.0000 % 14.72 C
744 20-06-2019 23:00:00 15.725 C 90.6667 % 14.2 C
745 21-06-2019 00:00:00 15.5 C 93.5000 % 14.46 C
746 21-06-2019 01:00:00 14.89167 C 93.0000 % 13.77 C
747 21-06-2019 02:00:00 14.78333 C 94.3333 % 13.88 C
748 21-06-2019 03:00:00 15.06667 C 94.2500 % 14.15 C
749 21-06-2019 04:00:00 14.91667 C 94.1667 % 13.99 C
750 21-06-2019 05:00:00 14.325 C 93.9167 % 13.36 C
Sensor: Nr:Datum:Temp:Feuchte:Taupunkt:
Aussen-T/F 751 21-06-2019 06:00:00 14.175 C 93.4167 % 13.13 C
752 21-06-2019 07:00:00 14.63333 C 92.6667 % 13.46 C
753 21-06-2019 08:00:00 15.88333 C 79.4167 % 12.33 C
754 21-06-2019 09:00:00 16.7 C 73.2500 % 11.89 C
755 21-06-2019 10:00:00 18.28333 C 66.5000 % 11.94 C
756 21-06-2019 11:00:00 19.45 C 61.0000 % 11.74 C
757 21-06-2019 12:00:00 20.10833 C 58.2500 % 11.66 C
758 21-06-2019 13:00:00 21.3 C 52.6667 % 11.24 C
759 21-06-2019 14:00:00 22.03333 C 47.4167 % 10.34 C
760 21-06-2019 15:00:00 22.6 C 46.2500 % 10.48 C
761 21-06-2019 16:00:00 23.64167 C 43.2500 % 10.42 C
762 21-06-2019 17:00:00 25.125 C 39.5000 % 10.39 C
763 21-06-2019 18:00:00 24.95833 C 39.5000 % 10.24 C
764 21-06-2019 19:00:00 23.63333 C 42.8333 % 10.27 C
765 21-06-2019 20:00:00 22.15 C 47.1667 % 10.37 C
766 21-06-2019 21:00:00 19.375 C 57.1667 % 10.69 C
767 21-06-2019 22:00:00 16.6 C 66.4167 % 10.32 C
768 21-06-2019 23:00:00 15.23333 C 72.5000 % 10.33 C
769 22-06-2019 00:00:00 13.71667 C 79.0000 % 10.14 C
770 22-06-2019 01:00:00 13.01667 C 82.2500 % 10.06 C
771 22-06-2019 02:00:00 12.10833 C 85.6667 % 9.78 C
772 22-06-2019 03:00:00 11.5 C 88.5000 % 9.67 C
773 22-06-2019 04:00:00 11.05833 C 90.4167 % 9.55 C
774 22-06-2019 05:00:00 10.675 C 91.7500 % 9.39 C
775 22-06-2019 06:00:00 10.70833 C 93.0000 % 9.62 C
Sensor: Nr:Datum:Temp:Feuchte:Taupunkt:
Aussen-T/F 776 22-06-2019 07:00:00 11.80833 C 94.3333 % 10.93 C
777 22-06-2019 08:00:00 13.84167 C 90.5833 % 12.33 C
778 22-06-2019 09:00:00 16.275 C 79.8333 % 12.79 C
779 22-06-2019 10:00:00 19.475 C 67.1667 % 13.23 C
780 22-06-2019 11:00:00 21.21667 C 62.1667 % 13.69 C
781 22-06-2019 12:00:00 22.66667 C 59.5833 % 14.4 C
782 22-06-2019 13:00:00 24.175 C 55.6667 % 14.75 C
783 22-06-2019 14:00:00 25.025 C 53.9167 % 15.05 C
784 22-06-2019 15:00:00 25.59167 C 49.9167 % 14.37 C
785 22-06-2019 16:00:00 26.50833 C 47.1667 % 14.34 C
786 22-06-2019 17:00:00 26.26667 C 48.6667 % 14.6 C
787 22-06-2019 18:00:00 27.45 C 43.5000 % 13.94 C
788 22-06-2019 19:00:00 27.53333 C 43.7500 % 14.1 C
789 22-06-2019 20:00:00 26.95 C 48.1667 % 15.06 C
790 22-06-2019 21:00:00 23.525 C 62.3333 % 15.91 C
791 22-06-2019 22:00:00 20.3 C 73.0833 % 15.32 C
792 22-06-2019 23:00:00 18.63333 C 79.3333 % 14.99 C
793 23-06-2019 00:00:00 17.4 C 83.5000 % 14.58 C
794 23-06-2019 01:00:00 16.33333 C 86.9167 % 14.15 C
795 23-06-2019 02:00:00 15.64167 C 89.2500 % 13.88 C
796 23-06-2019 03:00:00 14.98333 C 91.0000 % 13.53 C
797 23-06-2019 04:00:00 14.53333 C 92.2500 % 13.29 C
798 23-06-2019 05:00:00 14.075 C 93.3333 % 13.02 C
799 23-06-2019 06:00:00 14.20833 C 94.1667 % 13.28 C
800 23-06-2019 07:00:00 14.74167 C 94.9167 % 13.94 C
Sensor: Nr:Datum:Temp:Feuchte:Taupunkt:
Aussen-T/F 801 23-06-2019 08:00:00 16.09167 C 94.5833 % 15.22 C
802 23-06-2019 09:00:00 18.65833 C 86.5000 % 16.36 C
803 23-06-2019 10:00:00 22.525 C 69.0000 % 16.55 C
804 23-06-2019 11:00:00 24.14167 C 64.3333 % 16.99 C
805 23-06-2019 12:00:00 25.21667 C 61.5000 % 17.29 C
806 23-06-2019 13:00:00 26.58333 C 56.0000 % 17.09 C
807 23-06-2019 14:00:00 27.84167 C 51.0833 % 16.8 C
808 23-06-2019 15:00:00 28.575 C 48.2500 % 16.57 C
809 23-06-2019 16:00:00 30.24167 C 43.1667 % 16.33 C
810 23-06-2019 17:00:00 30.6 C 43.1667 % 16.65 C
811 23-06-2019 18:00:00 30.3 C 44.1667 % 16.74 C
812 23-06-2019 19:00:00 29.025 C 50.3333 % 17.65 C
813 23-06-2019 20:00:00 25.85833 C 62.0000 % 18.02 C
814 23-06-2019 21:00:00 23.39167 C 67.6667 % 17.07 C
815 23-06-2019 22:00:00 21.70833 C 72.3333 % 16.51 C
816 23-06-2019 23:00:00 20.25 C 77.8333 % 16.26 C
817 24-06-2019 00:00:00 19.11667 C 82.1667 % 16 C
818 24-06-2019 01:00:00 18.43333 C 84.3333 % 15.74 C
819 24-06-2019 02:00:00 17.54167 C 87.0833 % 15.37 C
820 24-06-2019 03:00:00 16.95833 C 89.0833 % 15.15 C
821 24-06-2019 04:00:00 16.55 C 90.6667 % 15.02 C
822 24-06-2019 05:00:00 16.40833 C 92.0833 % 15.12 C
823 24-06-2019 06:00:00 16.70833 C 92.9167 % 15.56 C
824 24-06-2019 07:00:00 17.45 C 92.9167 % 16.29 C
825 24-06-2019 08:00:00 18.55 C 91.7500 % 17.18 C
Sensor: Nr:Datum:Temp:Feuchte:Taupunkt:
Aussen-T/F 826 24-06-2019 09:00:00 21.25833 C 84.6667 % 18.57 C
827 24-06-2019 10:00:00 25.475 C 67.0833 % 18.92 C
828 24-06-2019 11:00:00 26.95833 C 59.6667 % 18.44 C
829 24-06-2019 12:00:00 27.88333 C 55.5000 % 18.15 C
830 24-06-2019 13:00:00 29.05833 C 52.0000 % 18.2 C
831 24-06-2019 14:00:00 30.1 C 49.8333 % 18.48 C
832 24-06-2019 15:00:00 31.38333 C 46.8333 % 18.65 C
833 24-06-2019 16:00:00 32.73333 C 44.0000 % 18.87 C
834 24-06-2019 17:00:00 32.96667 C 44.5833 % 19.3 C
835 24-06-2019 18:00:00 33.1 C 44.0000 % 19.2 C
836 24-06-2019 19:00:00 32.375 C 45.5000 % 19.09 C
837 24-06-2019 20:00:00 30.64167 C 50.5000 % 19.18 C
838 24-06-2019 21:00:00 26.81667 C 63.7500 % 19.37 C
839 24-06-2019 22:00:00 23.99167 C 71.0000 % 18.41 C
840 24-06-2019 23:00:00 22.68333 C 74.0000 % 17.81 C
841 25-06-2019 00:00:00 21.4 C 77.5000 % 17.3 C
842 25-06-2019 01:00:00 20.425 C 80.8333 % 17.02 C
843 25-06-2019 02:00:00 19.35833 C 83.5833 % 16.51 C
844 25-06-2019 03:00:00 18.46667 C 85.5833 % 16.01 C
845 25-06-2019 04:00:00 17.825 C 88.0833 % 15.83 C
846 25-06-2019 05:00:00 17.51667 C 89.4167 % 15.76 C
847 25-06-2019 06:00:00 17.76667 C 90.8333 % 16.25 C
848 25-06-2019 07:00:00 18.44167 C 90.6667 % 16.89 C
849 25-06-2019 08:00:00 20.1 C 88.5000 % 18.14 C
850 25-06-2019 09:00:00 22.56667 C 81.7500 % 19.29 C
Sensor: Nr:Datum:Temp:Feuchte:Taupunkt:
Aussen-T/F 851 25-06-2019 10:00:00 26.46667 C 65.7500 % 19.54 C
852 25-06-2019 11:00:00 28.05833 C 59.2500 % 19.36 C
853 25-06-2019 12:00:00 29.51667 C 55.8333 % 19.76 C
854 25-06-2019 13:00:00 31.1 C 52.0000 % 20.08 C
855 25-06-2019 14:00:00 32.75833 C 46.9167 % 19.93 C
856 25-06-2019 15:00:00 34.91667 C 41.7500 % 19.99 C
857 25-06-2019 16:00:00 36.45833 C 38.0833 % 19.87 C
858 25-06-2019 17:00:00 37.69167 C 32.9167 % 18.61 C
859 25-06-2019 18:00:00 36.71667 C 36.7500 % 19.53 C
860 25-06-2019 19:00:00 34.225 C 48.5000 % 21.8 C
861 25-06-2019 20:00:00 31.78333 C 52.1667 % 20.76 C
862 25-06-2019 21:00:00 28.025 C 58.9167 % 19.24 C
863 25-06-2019 22:00:00 25.60833 C 64.0000 % 18.29 C
864 25-06-2019 23:00:00 24.15833 C 65.9167 % 17.39 C
865 26-06-2019 00:00:00 23.41667 C 69.5000 % 17.52 C
866 26-06-2019 01:00:00 22.38333 C 74.1667 % 17.56 C
867 26-06-2019 02:00:00 21.20833 C 79.0000 % 17.42 C
868 26-06-2019 03:00:00 20.575 C 81.9167 % 17.38 C
869 26-06-2019 04:00:00 19.825 C 84.4167 % 17.12 C
870 26-06-2019 05:00:00 19.475 C 86.5000 % 17.16 C
871 26-06-2019 06:00:00 19.575 C 87.8333 % 17.5 C
872 26-06-2019 07:00:00 20.29167 C 88.1667 % 18.27 C
873 26-06-2019 08:00:00 21.89167 C 87.8333 % 19.78 C
874 26-06-2019 09:00:00 24.64167 C 83.0000 % 21.56 C
875 26-06-2019 10:00:00 27.25 C 74.0833 % 22.22 C
Sensor: Nr:Datum:Temp:Feuchte:Taupunkt:
Aussen-T/F 876 26-06-2019 11:00:00 28.95 C 68.1667 % 22.48 C
877 26-06-2019 12:00:00 30.24167 C 62.8333 % 22.36 C
878 26-06-2019 13:00:00 31.63333 C 53.0833 % 20.9 C
879 26-06-2019 14:00:00 32.64167 C 50.5000 % 21.02 C
880 26-06-2019 15:00:00 33.9 C 49.5833 % 21.87 C
881 26-06-2019 16:00:00 34.76667 C 45.8333 % 21.37 C
882 26-06-2019 17:00:00 34.76667 C 44.0000 % 20.7 C
883 26-06-2019 18:00:00 34.36667 C 41.8333 % 19.53 C
884 26-06-2019 19:00:00 33.36667 C 43.5833 % 19.29 C
885 26-06-2019 20:00:00 30.94167 C 50.2500 % 19.38 C
886 26-06-2019 21:00:00 28.8 C 56.5000 % 19.29 C
887 26-06-2019 22:00:00 26.4 C 65.2500 % 19.35 C
888 26-06-2019 23:00:00 26.03333 C 69.3333 % 19.98 C
889 27-06-2019 00:00:00 25.24167 C 73.0000 % 20.05 C
890 27-06-2019 01:00:00 24.11667 C 76.5000 % 19.72 C
891 27-06-2019 02:00:00 23.25833 C 78.5000 % 19.31 C
892 27-06-2019 03:00:00 22.41667 C 78.0000 % 18.39 C
893 27-06-2019 04:00:00 21.66667 C 77.0000 % 17.46 C
894 27-06-2019 05:00:00 20.54167 C 79.4167 % 16.86 C
895 27-06-2019 06:00:00 20.01667 C 80.7500 % 16.61 C
896 27-06-2019 07:00:00 20.03333 C 79.7500 % 16.43 C
897 27-06-2019 08:00:00 20.6 C 77.5000 % 16.53 C
898 27-06-2019 09:00:00 21.45833 C 74.0000 % 16.63 C
899 27-06-2019 10:00:00 22.83333 C 68.0000 % 16.62 C
900 27-06-2019 11:00:00 24.03333 C 62.0833 % 16.32 C
Sensor: Nr:Datum:Temp:Feuchte:Taupunkt:
Aussen-T/F 901 27-06-2019 12:00:00 24.84167 C 58.9167 % 16.26 C
902 27-06-2019 13:00:00 25.875 C 53.2500 % 15.64 C
903 27-06-2019 14:00:00 26.98333 C 48.3333 % 15.15 C
904 27-06-2019 15:00:00 28.6 C 41.0833 % 14.09 C
905 27-06-2019 16:00:00 30.18333 C 32.4167 % 11.86 C
906 27-06-2019 17:00:00 30.54167 C 28.0000 % 9.97 C
907 27-06-2019 18:00:00 30.225 C 26.3333 % 8.79 C
908 27-06-2019 19:00:00 29.59167 C 25.7500 % 7.92 C
909 27-06-2019 20:00:00 27.43333 C 32.5000 % 9.51 C
910 27-06-2019 21:00:00 24.48333 C 41.6667 % 10.62 C
911 27-06-2019 22:00:00 21.28333 C 55.0000 % 11.88 C
912 27-06-2019 23:00:00 19.9 C 60.8333 % 12.12 C
913 28-06-2019 00:00:00 18.53333 C 66.0833 % 12.08 C
914 28-06-2019 01:00:00 17.18333 C 71.6667 % 12.03 C
915 28-06-2019 02:00:00 16.26667 C 76.5000 % 12.13 C
916 28-06-2019 03:00:00 15.48333 C 80.2500 % 12.1 C
917 28-06-2019 04:00:00 14.35 C 84.2500 % 11.73 C
918 28-06-2019 05:00:00 13.51667 C 87.4167 % 11.47 C
919 28-06-2019 06:00:00 13.35833 C 89.7500 % 11.71 C
920 28-06-2019 07:00:00 13.86667 C 90.8333 % 12.4 C
921 28-06-2019 08:00:00 15.39167 C 85.5000 % 12.97 C
922 28-06-2019 09:00:00 17.7 C 74.9167 % 13.2 C
923 28-06-2019 10:00:00 19.81667 C 67.4167 % 13.61 C
924 28-06-2019 11:00:00 21.475 C 60.3333 % 13.47 C
925 28-06-2019 12:00:00 22.84167 C 55.6667 % 13.51 C
Sensor: Nr:Datum:Temp:Feuchte:Taupunkt:
Aussen-T/F 926 28-06-2019 13:00:00 24.66667 C 47.2500 % 12.69 C
927 28-06-2019 14:00:00 26.31667 C 42.3333 % 12.5 C
928 28-06-2019 15:00:00 28.225 C 38.5833 % 12.79 C
929 28-06-2019 16:00:00 30.25 C 33.5833 % 12.46 C
930 28-06-2019 17:00:00 31.13333 C 29.7500 % 11.38 C
931 28-06-2019 18:00:00 31.66667 C 28.0000 % 10.93 C
932 28-06-2019 19:00:00 31.2 C 30.0833 % 11.61 C
933 28-06-2019 20:00:00 29.49167 C 36.8333 % 13.2 C
934 28-06-2019 21:00:00 25.61667 C 48.1667 % 13.85 C
935 28-06-2019 22:00:00 21.58333 C 54.6667 % 12.07 C
936 28-06-2019 23:00:00 19.275 C 63.6667 % 12.22 C
937 29-06-2019 00:00:00 18.40833 C 65.9167 % 11.93 C
938 29-06-2019 01:00:00 17.83333 C 68.0833 % 11.87 C
939 29-06-2019 02:00:00 17.09167 C 70.9167 % 11.78 C
940 29-06-2019 03:00:00 16.39167 C 74.3333 % 11.82 C
941 29-06-2019 04:00:00 15.175 C 78.5833 % 11.48 C
942 29-06-2019 05:00:00 14.09167 C 82.7500 % 11.21 C
943 29-06-2019 06:00:00 13.70833 C 85.5000 % 11.32 C
944 29-06-2019 07:00:00 14.075 C 87.6667 % 12.06 C
945 29-06-2019 08:00:00 15.26667 C 86.9167 % 13.1 C
946 29-06-2019 09:00:00 19.2 C 71.5000 % 13.92 C
947 29-06-2019 10:00:00 23.49167 C 55.0833 % 13.96 C
948 29-06-2019 11:00:00 25.775 C 48.0000 % 13.94 C
949 29-06-2019 12:00:00 27.41667 C 44.5833 % 14.29 C
950 29-06-2019 13:00:00 29.11667 C 35.4167 % 12.28 C
Sensor: Nr:Datum:Temp:Feuchte:Taupunkt:
Aussen-T/F 951 29-06-2019 14:00:00 30.58333 C 30.5000 % 11.29 C
952 29-06-2019 15:00:00 32.63333 C 26.5000 % 10.92 C
953 29-06-2019 16:00:00 34.24167 C 23.5000 % 10.47 C
954 29-06-2019 17:00:00 35.325 C 22.2500 % 10.55 C
955 29-06-2019 18:00:00 35.64167 C 22.5833 % 11.03 C
956 29-06-2019 19:00:00 35.26667 C 23.4167 % 11.27 C
957 29-06-2019 20:00:00 32.425 C 34.0833 % 14.58 C
958 29-06-2019 21:00:00 27.60833 C 40.0833 % 12.83 C
959 29-06-2019 22:00:00 24.225 C 45.4167 % 11.68 C
960 29-06-2019 23:00:00 21.23333 C 57.4167 % 12.49 C
961 30-06-2019 00:00:00 18.93333 C 65.8333 % 12.41 C
962 30-06-2019 01:00:00 17.525 C 72.1667 % 12.46 C
963 30-06-2019 02:00:00 16.75 C 75.5833 % 12.42 C
964 30-06-2019 03:00:00 16.10833 C 78.7500 % 12.42 C
965 30-06-2019 04:00:00 15.58333 C 81.3333 % 12.4 C
966 30-06-2019 05:00:00 15.05 C 83.5833 % 12.29 C
967 30-06-2019 06:00:00 14.85 C 86.5000 % 12.62 C
968 30-06-2019 07:00:00 15.44167 C 87.8333 % 13.44 C
969 30-06-2019 08:00:00 17.025 C 86.4167 % 14.74 C
970 30-06-2019 09:00:00 19.65833 C 81.5833 % 16.42 C
971 30-06-2019 10:00:00 25.225 C 64.7500 % 18.11 C
972 30-06-2019 11:00:00 30.59167 C 45.2500 % 17.39 C
973 30-06-2019 12:00:00 32.48333 C 40.0000 % 17.14 C
974 30-06-2019 13:00:00 34.6 C 35.0000 % 16.89 C
975 30-06-2019 14:00:00 36.00833 C 34.3333 % 17.82 C
Sensor: Nr:Datum:Temp:Feuchte:Taupunkt:
Aussen-T/F 976 30-06-2019 15:00:00 35.5 C 40.7500 % 20.12 C
977 30-06-2019 16:00:00 35.49167 C 45.0000 % 21.72 C
978 30-06-2019 17:00:00 35.875 C 45.5833 % 22.28 C
979 30-06-2019 18:00:00 34.975 C 46.3333 % 21.73 C
980 30-06-2019 19:00:00 32.65833 C 50.6667 % 21.09 C
981 30-06-2019 20:00:00 29.35 C 58.8333 % 20.45 C
982 30-06-2019 21:00:00 27.18333 C 62.5000 % 19.4 C
983 30-06-2019 22:00:00 26.25833 C 63.6667 % 18.82 C
984 30-06-2019 23:00:00 24.55833 C 67.0000 % 18.02 C
985 01-07-2019 00:00:00 22.68333 C 73.0833 % 17.61 C
986 01-07-2019 01:00:00 22.36667 C 73.0833 % 17.31 C
987 01-07-2019 02:00:00 21.63333 C 73.9167 % 16.78 C
988 01-07-2019 03:00:00 20.98333 C 72.0833 % 15.76 C
989 01-07-2019 04:00:00 20.34167 C 71.7500 % 15.07 C
990 01-07-2019 05:00:00 19.65833 C 73.0833 % 14.7 C
991 01-07-2019 06:00:00 19.68333 C 70.9167 % 14.26 C
992 01-07-2019 07:00:00 19.675 C 70.9167 % 14.25 C
993 01-07-2019 08:00:00 19.79167 C 70.6667 % 14.31 C
994 01-07-2019 09:00:00 20.24167 C 69.2500 % 14.43 C
995 01-07-2019 10:00:00 21.20833 C 68.8333 % 15.26 C
996 01-07-2019 11:00:00 21.78333 C 69.2500 % 15.9 C
997 01-07-2019 12:00:00 23.16667 C 62.7500 % 15.67 C
998 01-07-2019 13:00:00 24.89167 C 50.9167 % 14.04 C
999 01-07-2019 14:00:00 25.55833 C 51.1667 % 14.73 C
1000 01-07-2019 15:00:00 26.675 C 47.1667 % 14.49 C
Sensor: Nr:Datum:Temp:Feuchte:Taupunkt:
Aussen-T/F 1001 01-07-2019 16:00:00 26.89167 C 44.3333 % 13.73 C
1002 01-07-2019 17:00:00 27.04167 C 42.0833 % 13.06 C
1003 01-07-2019 18:00:00 26.3 C 44.0000 % 13.08 C
1004 01-07-2019 19:00:00 25.96667 C 42.7500 % 12.34 C
1005 01-07-2019 20:00:00 24.53333 C 46.6667 % 12.38 C
1006 01-07-2019 21:00:00 22.55833 C 51.1667 % 11.97 C
1007 01-07-2019 22:00:00 20.825 C 57.2500 % 12.06 C
1008 01-07-2019 23:00:00 20.03333 C 59.4167 % 11.89 C
1009 02-07-2019 00:00:00 18.85833 C 63.1667 % 11.71 C
1010 02-07-2019 01:00:00 16.89167 C 70.3333 % 11.46 C
1011 02-07-2019 02:00:00 15.85 C 74.3333 % 11.3 C
1012 02-07-2019 03:00:00 15.49167 C 75.2500 % 11.13 C
1013 02-07-2019 04:00:00 14.525 C 78.8333 % 10.9 C
1014 02-07-2019 05:00:00 13.45 C 83.2500 % 10.67 C
1015 02-07-2019 06:00:00 13.10833 C 85.5000 % 10.73 C
1016 02-07-2019 07:00:00 13.23333 C 87.0000 % 11.12 C
1017 02-07-2019 08:00:00 14.925 C 82.0000 % 11.88 C
1018 02-07-2019 09:00:00 17.48333 C 70.3333 % 12.03 C
1019 02-07-2019 10:00:00 19 C 62.7500 % 11.74 C
1020 02-07-2019 11:00:00 19.60833 C 60.5833 % 11.78 C
1021 02-07-2019 12:00:00 20.48333 C 55.0833 % 11.16 C
1022 02-07-2019 13:00:00 21.46667 C 51.4167 % 11.04 C
1023 02-07-2019 14:00:00 22.31667 C 49.1667 % 11.14 C
1024 02-07-2019 15:00:00 23.00833 C 47.5833 % 11.28 C
1025 02-07-2019 16:00:00 24.98333 C 40.2500 % 10.55 C
Sensor: Nr:Datum:Temp:Feuchte:Taupunkt:
Aussen-T/F 1026 02-07-2019 17:00:00 25.49167 C 38.5000 % 10.33 C
1027 02-07-2019 18:00:00 24.36667 C 41.3333 % 10.39 C
1028 02-07-2019 19:00:00 24.775 C 38.5833 % 9.73 C
1029 02-07-2019 20:00:00 22.95 C 41.7500 % 9.27 C
1030 02-07-2019 21:00:00 20.825 C 48.5833 % 9.6 C
1031 02-07-2019 22:00:00 17.64167 C 58.2500 % 9.35 C
1032 02-07-2019 23:00:00 16.3 C 62.2500 % 9.07 C
1033 03-07-2019 00:00:00 14.80833 C 68.0833 % 8.98 C
1034 03-07-2019 01:00:00 13.23333 C 73.7500 % 8.65 C
1035 03-07-2019 02:00:00 12.30833 C 77.2500 % 8.44 C
1036 03-07-2019 03:00:00 11.475 C 80.5000 % 8.24 C
1037 03-07-2019 04:00:00 10.65 C 83.2500 % 7.93 C
1038 03-07-2019 05:00:00 10.10833 C 85.8333 % 7.85 C
1039 03-07-2019 06:00:00 10.13333 C 88.0000 % 8.24 C
1040 03-07-2019 07:00:00 10.91667 C 88.6667 % 9.12 C
1041 03-07-2019 08:00:00 12.31667 C 86.1667 % 10.07 C
1042 03-07-2019 09:00:00 14.475 C 77.0000 % 10.5 C
1043 03-07-2019 10:00:00 18.01667 C 60.9167 % 10.37 C
1044 03-07-2019 11:00:00 19.95 C 50.8333 % 9.47 C
1045 03-07-2019 12:00:00 20.75833 C 48.7500 % 9.59 C
1046 03-07-2019 13:00:00 21.4 C 46.6667 % 9.52 C
1047 03-07-2019 14:00:00 21.975 C 46.3333 % 9.94 C
1048 03-07-2019 15:00:00 22.625 C 45.1667 % 10.15 C
1049 03-07-2019 16:00:00 24.44167 C 39.9167 % 9.94 C
1050 03-07-2019 17:00:00 24.56667 C 38.0833 % 9.35 C
Sensor: Nr:Datum:Temp:Feuchte:Taupunkt:
Aussen-T/F 1051 03-07-2019 18:00:00 24.70833 C 37.5000 % 9.25 C
1052 03-07-2019 19:00:00 23.79167 C 38.8333 % 8.95 C
1053 03-07-2019 20:00:00 22.35833 C 41.9167 % 8.8 C
1054 03-07-2019 21:00:00 20.40833 C 46.4167 % 8.54 C
1055 03-07-2019 22:00:00 17.54167 C 55.0833 % 8.43 C
1056 03-07-2019 23:00:00 15.46667 C 61.8333 % 8.19 C
1057 04-07-2019 00:00:00 14.2 C 65.9167 % 7.93 C
1058 04-07-2019 01:00:00 13.48333 C 68.0833 % 7.72 C
1059 04-07-2019 02:00:00 12.625 C 71.6667 % 7.65 C
1060 04-07-2019 03:00:00 11.24167 C 77.1667 % 7.39 C
1061 04-07-2019 04:00:00 10.78333 C 79.6667 % 7.42 C
1062 04-07-2019 05:00:00 10.51667 C 81.7500 % 7.53 C
1063 04-07-2019 06:00:00 10.28333 C 83.7500 % 7.66 C
1064 04-07-2019 07:00:00 10.55 C 86.0000 % 8.31 C
1065 04-07-2019 08:00:00 11.76667 C 83.9167 % 9.14 C
1066 04-07-2019 09:00:00 14.4 C 73.1667 % 9.66 C
1067 04-07-2019 10:00:00 18.125 C 56.0833 % 9.24 C
1068 04-07-2019 11:00:00 19.58333 C 49.0833 % 8.61 C
1069 04-07-2019 12:00:00 20.4 C 45.3333 % 8.19 C
1070 04-07-2019 13:00:00 21.63333 C 41.5833 % 8.03 C
1071 04-07-2019 14:00:00 22.71667 C 38.0000 % 7.68 C
1072 04-07-2019 15:00:00 24.7 C 33.5833 % 7.61 C
1073 04-07-2019 16:00:00 26.80833 C 31.4167 % 8.47 C
1074 04-07-2019 17:00:00 26.9 C 31.9167 % 8.78 C
1075 04-07-2019 18:00:00 27.35 C 30.7500 % 8.62 C
Sensor: Nr:Datum:Temp:Feuchte:Taupunkt:
Aussen-T/F 1076 04-07-2019 19:00:00 26.94167 C 31.6667 % 8.7 C
1077 04-07-2019 20:00:00 24.95 C 36.1667 % 8.92 C
1078 04-07-2019 21:00:00 21.60833 C 47.4167 % 9.95 C
1079 04-07-2019 22:00:00 18.56667 C 53.4167 % 8.93 C
1080 04-07-2019 23:00:00 17.39167 C 57.0000 % 8.79 C
1081 05-07-2019 00:00:00 16.41667 C 61.5000 % 9 C
1082 05-07-2019 01:00:00 15.18333 C 65.8333 % 8.84 C
1083 05-07-2019 02:00:00 14.13333 C 69.1667 % 8.57 C
1084 05-07-2019 03:00:00 13.70833 C 73.2500 % 9.01 C
1085 05-07-2019 04:00:00 14.08333 C 73.8333 % 9.49 C
1086 05-07-2019 05:00:00 13.75833 C 74.5833 % 9.33 C
1087 05-07-2019 06:00:00 13.93333 C 76.3333 % 9.84 C
1088 05-07-2019 07:00:00 14.55 C 75.4167 % 10.26 C
1089 05-07-2019 08:00:00 15.8 C 72.5833 % 10.89 C
1090 05-07-2019 09:00:00 17.29167 C 67.5833 % 11.24 C
1091 05-07-2019 10:00:00 20.225 C 58.6667 % 11.87 C
1092 05-07-2019 11:00:00 21.94167 C 53.1667 % 11.98 C
1093 05-07-2019 12:00:00 22.84167 C 50.2500 % 11.95 C
1094 05-07-2019 13:00:00 24.38333 C 45.4167 % 11.83 C
1095 05-07-2019 14:00:00 25.5 C 42.7500 % 11.92 C
1096 05-07-2019 15:00:00 27.45 C 37.8333 % 11.81 C
1097 05-07-2019 16:00:00 28.91667 C 34.8333 % 11.85 C
1098 05-07-2019 17:00:00 29.6 C 33.7500 % 11.97 C
1099 05-07-2019 18:00:00 29.41667 C 35.0000 % 12.36 C
1100 05-07-2019 19:00:00 27.68333 C 38.6667 % 12.35 C
Sensor: Nr:Datum:Temp:Feuchte:Taupunkt:
Aussen-T/F 1101 05-07-2019 20:00:00 26.10833 C 42.6667 % 12.44 C
1102 05-07-2019 21:00:00 23.225 C 52.6667 % 13.02 C
1103 05-07-2019 22:00:00 21.18333 C 58.7500 % 12.79 C
1104 05-07-2019 23:00:00 20.4 C 62.6667 % 13.04 C
1105 06-07-2019 00:00:00 18.45833 C 69.9167 % 12.87 C
1106 06-07-2019 01:00:00 17.60833 C 73.0833 % 12.73 C
1107 06-07-2019 02:00:00 17.05833 C 76.2500 % 12.85 C
1108 06-07-2019 03:00:00 16.875 C 77.5000 % 12.92 C
1109 06-07-2019 04:00:00 16.16667 C 79.6667 % 12.65 C
1110 06-07-2019 05:00:00 15.425 C 81.8333 % 12.34 C
1111 06-07-2019 06:00:00 15.18333 C 84.5833 % 12.61 C
1112 06-07-2019 07:00:00 15.18333 C 85.0833 % 12.7 C
1113 06-07-2019 08:00:00 16.78333 C 81.2500 % 13.55 C
1114 06-07-2019 09:00:00 19.425 C 71.6667 % 14.18 C
1115 06-07-2019 10:00:00 22.16667 C 62.5000 % 14.67 C
1116 06-07-2019 11:00:00 24.41667 C 52.9167 % 14.19 C
1117 06-07-2019 12:00:00 25.48333 C 50.0000 % 14.3 C
1118 06-07-2019 13:00:00 26.84167 C 43.5000 % 13.39 C
1119 06-07-2019 14:00:00 28.7 C 32.0833 % 10.42 C
1120 06-07-2019 15:00:00 30.95833 C 22.5833 % 7.15 C
1121 06-07-2019 16:00:00 29.08333 C 21.6667 % 5 C
1122 06-07-2019 17:00:00 27.89167 C 28.8333 % 8.14 C
1123 06-07-2019 18:00:00 22.825 C 51.7500 % 12.38 C
1124 06-07-2019 19:00:00 21.60833 C 55.9167 % 12.44 C
1125 06-07-2019 20:00:00 20.35833 C 64.4167 % 13.43 C
Sensor: Nr:Datum:Temp:Feuchte:Taupunkt:
Aussen-T/F 1126 06-07-2019 21:00:00 19.75833 C 66.8333 % 13.42 C
1127 06-07-2019 22:00:00 19.86667 C 71.1667 % 14.49 C
1128 06-07-2019 23:00:00 20.35833 C 71.4167 % 15.02 C
1129 07-07-2019 00:00:00 18.93333 C 74.1667 % 14.23 C
1130 07-07-2019 01:00:00 17.88333 C 77.4167 % 13.88 C
1131 07-07-2019 02:00:00 17.33333 C 74.5000 % 12.76 C
1132 07-07-2019 03:00:00 17 C 75.5833 % 12.66 C
1133 07-07-2019 04:00:00 16.825 C 75.8333 % 12.54 C
1134 07-07-2019 05:00:00 16.35 C 79.9167 % 12.88 C
1135 07-07-2019 06:00:00 14.99167 C 89.7500 % 13.32 C
1136 07-07-2019 07:00:00 14.65 C 92.9167 % 13.52 C
1137 07-07-2019 08:00:00 14.28333 C 93.7500 % 13.29 C
1138 07-07-2019 09:00:00 14.78333 C 94.1667 % 13.85 C
1139 07-07-2019 10:00:00 15.38333 C 86.1667 % 13.08 C
1140 07-07-2019 11:00:00 16.50833 C 75.4167 % 12.15 C
1141 07-07-2019 12:00:00 17.73333 C 67.5833 % 11.66 C
1142 07-07-2019 13:00:00 18.5 C 62.4167 % 11.19 C
1143 07-07-2019 14:00:00 19.25833 C 55.6667 % 10.18 C
1144 07-07-2019 15:00:00 20.91667 C 48.5000 % 9.66 C
1145 07-07-2019 16:00:00 21.78333 C 43.6667 % 8.89 C
1146 07-07-2019 17:00:00 21.475 C 44.0833 % 8.75 C
1147 07-07-2019 18:00:00 21.775 C 44.4167 % 9.13 C
1148 07-07-2019 19:00:00 21.325 C 44.5000 % 8.75 C
1149 07-07-2019 20:00:00 20 C 48.0000 % 8.67 C
1150 07-07-2019 21:00:00 18.65 C 52.5833 % 8.77 C
Sensor: Nr:Datum:Temp:Feuchte:Taupunkt:
Aussen-T/F 1151 07-07-2019 22:00:00 15.64167 C 66.2500 % 9.37 C
1152 07-07-2019 23:00:00 13.85 C 73.9167 % 9.28 C
1153 08-07-2019 00:00:00 12.875 C 77.5000 % 9.04 C
1154 08-07-2019 01:00:00 11.89167 C 81.2500 % 8.78 C
1155 08-07-2019 02:00:00 11.05 C 83.7500 % 8.41 C
1156 08-07-2019 03:00:00 10.94167 C 83.5000 % 8.26 C
1157 08-07-2019 04:00:00 10.78333 C 83.9167 % 8.18 C
1158 08-07-2019 05:00:00 9.89167 C 86.7500 % 7.79 C
1159 08-07-2019 06:00:00 9.55833 C 89.5833 % 7.93 C
1160 08-07-2019 07:00:00 9.975 C 91.0000 % 8.58 C
1161 08-07-2019 08:00:00 11.225 C 90.0833 % 9.66 C
1162 08-07-2019 09:00:00 14.18333 C 73.8333 % 9.59 C
1163 08-07-2019 10:00:00 15.65833 C 62.6667 % 8.57 C
1164 08-07-2019 11:00:00 16.14167 C 61.8333 % 8.82 C
1165 08-07-2019 12:00:00 16.68333 C 59.5833 % 8.79 C
1166 08-07-2019 13:00:00 17.05833 C 58.1667 % 8.78 C
1167 08-07-2019 14:00:00 17.33333 C 57.6667 % 8.91 C
1168 08-07-2019 15:00:00 17.49167 C 57.8333 % 9.1 C
1169 08-07-2019 16:00:00 18.025 C 57.0000 % 9.39 C
1170 08-07-2019 17:00:00 18.16667 C 57.1667 % 9.56 C
1171 08-07-2019 18:00:00 18.04167 C 57.2500 % 9.47 C
1172 08-07-2019 19:00:00 17.75833 C 58.0833 % 9.42 C
1173 08-07-2019 20:00:00 17.69167 C 58.5000 % 9.46 C
1174 08-07-2019 21:00:00 16.26667 C 65.0833 % 9.7 C
1175 08-07-2019 22:00:00 13.975 C 74.8333 % 9.59 C
Sensor: Nr:Datum:Temp:Feuchte:Taupunkt:
Aussen-T/F 1176 08-07-2019 23:00:00 14.11667 C 75.4167 % 9.84 C
1177 09-07-2019 00:00:00 13.29167 C 79.3333 % 9.79 C
1178 09-07-2019 01:00:00 12.7 C 81.4167 % 9.6 C
1179 09-07-2019 02:00:00 11.88333 C 83.8333 % 9.24 C
1180 09-07-2019 03:00:00 11.11667 C 87.1667 % 9.07 C
1181 09-07-2019 04:00:00 10.43333 C 88.3333 % 8.59 C
1182 09-07-2019 05:00:00 9.80833 C 90.1667 % 8.28 C
1183 09-07-2019 06:00:00 9.725 C 91.2500 % 8.37 C
1184 09-07-2019 07:00:00 10.91667 C 90.6667 % 9.45 C
1185 09-07-2019 08:00:00 12.98333 C 81.4167 % 9.88 C
1186 09-07-2019 09:00:00 14.2 C 75.8333 % 10 C
1187 09-07-2019 10:00:00 14.9 C 70.6667 % 9.62 C
1188 09-07-2019 11:00:00 16.09167 C 60.4167 % 8.44 C
1189 09-07-2019 12:00:00 16.86667 C 56.6667 % 8.22 C
1190 09-07-2019 13:00:00 17.68333 C 52.4167 % 7.83 C
1191 09-07-2019 14:00:00 18.6 C 49.1667 % 7.74 C
1192 09-07-2019 15:00:00 19.73333 C 45.9167 % 7.77 C
1193 09-07-2019 16:00:00 20.475 C 43.7500 % 7.73 C
1194 09-07-2019 17:00:00 21.725 C 39.5000 % 7.36 C
1195 09-07-2019 18:00:00 21.06667 C 39.7500 % 6.86 C
1196 09-07-2019 19:00:00 20.98333 C 40.7500 % 7.15 C
1197 09-07-2019 20:00:00 19.525 C 46.5000 % 7.76 C
1198 09-07-2019 21:00:00 17.04167 C 56.8333 % 8.42 C
1199 09-07-2019 22:00:00 14.95 C 62.5000 % 7.86 C
1200 09-07-2019 23:00:00 13.10833 C 71.8333 % 8.15 C
Sensor: Nr:Datum:Temp:Feuchte:Taupunkt:
Aussen-T/F 1201 10-07-2019 00:00:00 12.05 C 75.0833 % 7.78 C
1202 10-07-2019 01:00:00 11.01667 C 78.0000 % 7.33 C
1203 10-07-2019 02:00:00 10.01667 C 81.1667 % 6.94 C
1204 10-07-2019 03:00:00 9.05 C 84.6667 % 6.61 C
1205 10-07-2019 04:00:00 8.5 C 87.0000 % 6.46 C
1206 10-07-2019 05:00:00 8.23333 C 88.5833 % 6.46 C
1207 10-07-2019 06:00:00 8.10833 C 89.7500 % 6.53 C
1208 10-07-2019 07:00:00 8.46667 C 90.5833 % 7.02 C
1209 10-07-2019 08:00:00 10 C 90.1667 % 8.46 C
1210 10-07-2019 09:00:00 12.49167 C 81.8333 % 9.48 C
1211 10-07-2019 10:00:00 16.09167 C 68.5000 % 10.3 C
1212 10-07-2019 11:00:00 18.40833 C 54.5833 % 9.1 C
1213 10-07-2019 12:00:00 19.80833 C 42.6667 % 6.77 C
1214 10-07-2019 13:00:00 21.15833 C 35.4167 % 5.28 C
1215 10-07-2019 14:00:00 22.70833 C 30.8333 % 4.65 C
1216 10-07-2019 15:00:00 24.41667 C 28.2500 % 4.87 C
1217 10-07-2019 16:00:00 25.66667 C 26.6667 % 5.11 C
1218 10-07-2019 17:00:00 26.63333 C 25.4167 % 5.24 C
1219 10-07-2019 18:00:00 26.76667 C 25.7500 % 5.54 C
1220 10-07-2019 19:00:00 25.75 C 28.0833 % 5.92 C
1221 10-07-2019 20:00:00 23.525 C 33.6667 % 6.62 C
1222 10-07-2019 21:00:00 20.74167 C 43.3333 % 7.83 C
1223 10-07-2019 22:00:00 19.21667 C 48.2500 % 8.03 C
1224 10-07-2019 23:00:00 18.9 C 52.0000 % 8.84 C
1225 11-07-2019 00:00:00 19.10833 C 54.4167 % 9.7 C
Sensor: Nr:Datum:Temp:Feuchte:Taupunkt:
Aussen-T/F 1226 11-07-2019 01:00:00 17.8 C 61.0833 % 10.21 C
1227 11-07-2019 02:00:00 17.175 C 65.8333 % 10.74 C
1228 11-07-2019 03:00:00 16.875 C 70.1667 % 11.41 C
1229 11-07-2019 04:00:00 16.59167 C 72.6667 % 11.67 C
1230 11-07-2019 05:00:00 16.34167 C 73.1667 % 11.53 C
1231 11-07-2019 06:00:00 16.39167 C 74.2500 % 11.8 C
1232 11-07-2019 07:00:00 17.23333 C 71.7500 % 12.09 C
1233 11-07-2019 08:00:00 17.85833 C 69.0000 % 12.1 C
1234 11-07-2019 09:00:00 18.675 C 68.5000 % 12.77 C
1235 11-07-2019 10:00:00 18.7 C 70.6667 % 13.27 C
1236 11-07-2019 11:00:00 18.9 C 69.5000 % 13.2 C
1237 11-07-2019 12:00:00 17.35 C 81.9167 % 14.23 C
1238 11-07-2019 13:00:00 16.31667 C 90.8333 % 14.82 C
1239 11-07-2019 14:00:00 16.79167 C 92.7500 % 15.61 C
1240 11-07-2019 15:00:00 17.575 C 92.5000 % 16.35 C
1241 11-07-2019 16:00:00 19.11667 C 89.3333 % 17.32 C
1242 11-07-2019 17:00:00 20.88333 C 84.5000 % 18.17 C
1243 11-07-2019 18:00:00 19.50833 C 90.0833 % 17.84 C
1244 11-07-2019 19:00:00 18.3 C 93.0833 % 17.16 C
1245 11-07-2019 20:00:00 18.04167 C 94.0000 % 17.06 C
1246 11-07-2019 21:00:00 17.44167 C 94.0000 % 16.47 C
1247 11-07-2019 22:00:00 16.85 C 94.9167 % 16.03 C
1248 11-07-2019 23:00:00 16.43333 C 95.0833 % 15.64 C
1249 12-07-2019 00:00:00 16.05 C 96.0000 % 15.41 C
1250 12-07-2019 01:00:00 15.70833 C 96.0000 % 15.07 C
Sensor: Nr:Datum:Temp:Feuchte:Taupunkt:
Aussen-T/F 1251 12-07-2019 02:00:00 15.34167 C 96.0000 % 14.71 C
1252 12-07-2019 03:00:00 15.31667 C 96.5000 % 14.76 C
1253 12-07-2019 04:00:00 14.93333 C 96.4167 % 14.37 C
1254 12-07-2019 05:00:00 14.58333 C 97.0000 % 14.11 C
1255 12-07-2019 06:00:00 14.75833 C 97.0000 % 14.29 C
1256 12-07-2019 07:00:00 15.73333 C 97.1667 % 15.29 C
1257 12-07-2019 08:00:00 16.45833 C 97.0833 % 15.99 C
1258 12-07-2019 09:00:00 17.45 C 97.4167 % 17.04 C
1259 12-07-2019 10:00:00 18.78333 C 95.0000 % 17.97 C
1260 12-07-2019 11:00:00 20.325 C 88.7500 % 18.41 C
1261 12-07-2019 12:00:00 19.04167 C 91.7500 % 17.67 C
1262 12-07-2019 13:00:00 17.98333 C 94.2500 % 17.05 C
1263 12-07-2019 14:00:00 17.70833 C 94.1667 % 16.76 C
1264 12-07-2019 15:00:00 19.6 C 89.0833 % 17.75 C
1265 12-07-2019 16:00:00 20.76667 C 86.8333 % 18.49 C
1266 12-07-2019 17:00:00 19.975 C 79.9167 % 16.4 C
1267 12-07-2019 18:00:00 18.30833 C 84.9167 % 15.73 C
1268 12-07-2019 19:00:00 17.55833 C 87.6667 % 15.49 C
1269 12-07-2019 20:00:00 18.23333 C 88.2500 % 16.26 C
1270 12-07-2019 21:00:00 17.63333 C 87.0000 % 15.44 C
1271 12-07-2019 22:00:00 17.3 C 86.2500 % 14.98 C
1272 12-07-2019 23:00:00 16.55 C 88.3333 % 14.61 C
1273 13-07-2019 00:00:00 16.34167 C 86.6667 % 14.11 C
1274 13-07-2019 01:00:00 16.13333 C 89.9167 % 14.48 C
1275 13-07-2019 02:00:00 15.51667 C 94.0000 % 14.56 C
Sensor: Nr:Datum:Temp:Feuchte:Taupunkt:
Aussen-T/F 1276 13-07-2019 03:00:00 15.175 C 94.9167 % 14.37 C
1277 13-07-2019 04:00:00 14.99167 C 95.0833 % 14.21 C
1278 13-07-2019 05:00:00 14.90833 C 96.0000 % 14.28 C
1279 13-07-2019 06:00:00 14.75 C 96.0000 % 14.12 C
1280 13-07-2019 07:00:00 14.93333 C 96.1667 % 14.33 C
1281 13-07-2019 08:00:00 15.61667 C 96.1667 % 15.01 C
1282 13-07-2019 09:00:00 15.83333 C 95.5000 % 15.12 C
1283 13-07-2019 10:00:00 16.5 C 91.0000 % 15.03 C
1284 13-07-2019 11:00:00 17.51667 C 88.3333 % 15.57 C
1285 13-07-2019 12:00:00 18.75833 C 81.5000 % 15.53 C
1286 13-07-2019 13:00:00 19.725 C 75.9167 % 15.36 C
1287 13-07-2019 14:00:00 21.15 C 69.2500 % 15.3 C
1288 13-07-2019 15:00:00 21.18333 C 71.0833 % 15.74 C
1289 13-07-2019 16:00:00 20.90833 C 68.9167 % 14.99 C
1290 13-07-2019 17:00:00 21.84167 C 67.1667 % 15.48 C
1291 13-07-2019 18:00:00 22.38333 C 64.2500 % 15.3 C
1292 13-07-2019 19:00:00 22.70833 C 63.0000 % 15.3 C
1293 13-07-2019 20:00:00 20.45833 C 70.1667 % 14.84 C
1294 13-07-2019 21:00:00 19.2 C 77.2500 % 15.12 C
1295 13-07-2019 22:00:00 18.225 C 85.0833 % 15.68 C
1296 13-07-2019 23:00:00 17.21667 C 89.5833 % 15.49 C
1297 14-07-2019 00:00:00 16.95 C 89.7500 % 15.26 C
1298 14-07-2019 01:00:00 16.975 C 88.5833 % 15.08 C
1299 14-07-2019 02:00:00 16.35833 C 89.6667 % 14.66 C
1300 14-07-2019 03:00:00 15.44167 C 90.9167 % 13.97 C
Sensor: Nr:Datum:Temp:Feuchte:Taupunkt:
Aussen-T/F 1301 14-07-2019 04:00:00 15.11667 C 90.9167 % 13.64 C
1302 14-07-2019 05:00:00 14.85 C 90.2500 % 13.27 C
1303 14-07-2019 06:00:00 14.71667 C 90.9167 % 13.25 C
1304 14-07-2019 07:00:00 14.86667 C 86.8333 % 12.69 C
1305 14-07-2019 08:00:00 15.40833 C 85.3333 % 12.96 C
1306 14-07-2019 09:00:00 15.26667 C 84.1667 % 12.61 C
1307 14-07-2019 10:00:00 16.00833 C 77.7500 % 12.13 C
1308 14-07-2019 11:00:00 16.83333 C 73.1667 % 12 C
1309 14-07-2019 12:00:00 17.53333 C 69.4167 % 11.88 C
1310 14-07-2019 13:00:00 17.80833 C 66.8333 % 11.57 C
1311 14-07-2019 14:00:00 18.19167 C 64.3333 % 11.35 C
1312 14-07-2019 15:00:00 18.925 C 61.0833 % 11.26 C
1313 14-07-2019 16:00:00 19.33333 C 58.8333 % 11.08 C
1314 14-07-2019 17:00:00 19.34167 C 58.5833 % 11.03 C
1315 14-07-2019 18:00:00 18.65833 C 61.8333 % 11.2 C
1316 14-07-2019 19:00:00 18.36667 C 62.0000 % 10.96 C
1317 14-07-2019 20:00:00 17.89167 C 66.0000 % 11.46 C
1318 14-07-2019 21:00:00 17.45 C 67.4167 % 11.36 C
1319 14-07-2019 22:00:00 17.125 C 68.0833 % 11.19 C
1320 14-07-2019 23:00:00 16.8 C 71.0833 % 11.53 C
1321 15-07-2019 00:00:00 16.06667 C 76.7500 % 11.99 C
1322 15-07-2019 01:00:00 15.63333 C 78.7500 % 11.96 C
1323 15-07-2019 02:00:00 15.55833 C 80.3333 % 12.19 C
1324 15-07-2019 03:00:00 14.99167 C 83.5000 % 12.22 C
1325 15-07-2019 04:00:00 15.30833 C 78.2500 % 11.55 C
Sensor: Nr:Datum:Temp:Feuchte:Taupunkt:
Aussen-T/F 1326 15-07-2019 05:00:00 15.65 C 74.4167 % 11.12 C
1327 15-07-2019 06:00:00 15.6 C 74.1667 % 11.02 C
1328 15-07-2019 07:00:00 15.69167 C 74.0000 % 11.07 C
1329 15-07-2019 08:00:00 15.83333 C 74.0833 % 11.23 C
1330 15-07-2019 09:00:00 16.53333 C 71.4167 % 11.35 C
1331 15-07-2019 10:00:00 16.8 C 72.1667 % 11.76 C
1332 15-07-2019 11:00:00 16.84167 C 74.4167 % 12.27 C
1333 15-07-2019 12:00:00 17.10833 C 72.8333 % 12.2 C
1334 15-07-2019 13:00:00 17.49167 C 69.7500 % 11.91 C
1335 15-07-2019 14:00:00 18.09167 C 66.3333 % 11.72 C
1336 15-07-2019 15:00:00 17.68333 C 67.9167 % 11.69 C
1337 15-07-2019 16:00:00 17.11667 C 70.5000 % 11.71 C
1338 15-07-2019 17:00:00 16.775 C 71.6667 % 11.63 C
1339 15-07-2019 18:00:00 16.69167 C 71.5833 % 11.54 C
1340 15-07-2019 19:00:00 16.78333 C 71.0000 % 11.5 C
1341 15-07-2019 20:00:00 16.69167 C 71.0833 % 11.43 C
1342 15-07-2019 21:00:00 16.34167 C 73.9167 % 11.68 C
1343 15-07-2019 22:00:00 15.61667 C 79.5000 % 12.09 C
1344 15-07-2019 23:00:00 15.44167 C 77.2500 % 11.48 C
1345 16-07-2019 00:00:00 14.75 C 79.8333 % 11.31 C
1346 16-07-2019 01:00:00 13.675 C 80.3333 % 10.35 C
1347 16-07-2019 02:00:00 12.23333 C 85.5000 % 9.88 C
1348 16-07-2019 03:00:00 10.9 C 90.2500 % 9.37 C
1349 16-07-2019 04:00:00 10.28333 C 92.2500 % 9.08 C
1350 16-07-2019 05:00:00 9.98333 C 93.1667 % 8.93 C
Sensor: Nr:Datum:Temp:Feuchte:Taupunkt:
Aussen-T/F 1351 16-07-2019 06:00:00 10.125 C 94.4167 % 9.27 C
1352 16-07-2019 07:00:00 11.01667 C 93.7500 % 10.05 C
1353 16-07-2019 08:00:00 12.625 C 90.7500 % 11.15 C
1354 16-07-2019 09:00:00 14.58333 C 84.1667 % 11.94 C
1355 16-07-2019 10:00:00 15.51667 C 77.5000 % 11.6 C
1356 16-07-2019 11:00:00 15.99167 C 74.6667 % 11.5 C
1357 16-07-2019 12:00:00 16.725 C 71.8333 % 11.62 C
1358 16-07-2019 13:00:00 17.40833 C 69.4167 % 11.76 C
1359 16-07-2019 14:00:00 18.38333 C 66.5000 % 12.04 C
1360 16-07-2019 15:00:00 20.325 C 60.9167 % 12.54 C
1361 16-07-2019 16:00:00 22.31667 C 54.8333 % 12.8 C
1362 16-07-2019 17:00:00 22.8 C 53.0833 % 12.75 C
1363 16-07-2019 18:00:00 23.075 C 52.0000 % 12.69 C
1364 16-07-2019 19:00:00 22.125 C 54.1667 % 12.43 C
1365 16-07-2019 20:00:00 20.81667 C 58.3333 % 12.34 C
1366 16-07-2019 21:00:00 18.30833 C 70.1667 % 12.78 C
1367 16-07-2019 22:00:00 15.85 C 78.8333 % 12.18 C
1368 16-07-2019 23:00:00 15.08333 C 81.7500 % 11.99 C
1369 17-07-2019 00:00:00 14.09167 C 84.3333 % 11.49 C
1370 17-07-2019 01:00:00 13.08333 C 88.2500 % 11.19 C
1371 17-07-2019 02:00:00 12.40833 C 89.7500 % 10.77 C
1372 17-07-2019 03:00:00 11.64167 C 91.5833 % 10.32 C
1373 17-07-2019 04:00:00 11.225 C 92.8333 % 10.11 C
1374 17-07-2019 05:00:00 10.83333 C 93.7500 % 9.87 C
1375 17-07-2019 06:00:00 10.74167 C 94.5000 % 9.9 C
Sensor: Nr:Datum:Temp:Feuchte:Taupunkt:
Aussen-T/F 1376 17-07-2019 07:00:00 11.51667 C 95.0833 % 10.76 C
1377 17-07-2019 08:00:00 12.79167 C 94.5000 % 11.93 C
1378 17-07-2019 09:00:00 14.85833 C 88.5833 % 12.99 C
1379 17-07-2019 10:00:00 17.23333 C 77.4167 % 13.25 C
1380 17-07-2019 11:00:00 18.58333 C 71.6667 % 13.37 C
1381 17-07-2019 12:00:00 19.39167 C 68.7500 % 13.51 C
1382 17-07-2019 13:00:00 20.5 C 62.9167 % 13.2 C
1383 17-07-2019 14:00:00 21.69167 C 58.9167 % 13.31 C
1384 17-07-2019 15:00:00 22.69167 C 58.0000 % 14.01 C
1385 17-07-2019 16:00:00 23.675 C 54.9167 % 14.08 C
1386 17-07-2019 17:00:00 24.575 C 53.0000 % 14.36 C
1387 17-07-2019 18:00:00 24.24167 C 54.1667 % 14.39 C
1388 17-07-2019 19:00:00 23.20833 C 58.5000 % 14.62 C
1389 17-07-2019 20:00:00 21.525 C 64.2500 % 14.49 C
1390 17-07-2019 21:00:00 19.69167 C 70.6667 % 14.22 C
1391 17-07-2019 22:00:00 17.05 C 80.0000 % 13.58 C
1392 17-07-2019 23:00:00 16.025 C 84.5000 % 13.41 C
1393 18-07-2019 00:00:00 15.29167 C 86.0833 % 12.98 C
1394 18-07-2019 01:00:00 14.29167 C 88.5000 % 12.42 C
1395 18-07-2019 02:00:00 13.69167 C 91.2500 % 12.29 C
1396 18-07-2019 03:00:00 13.45833 C 92.2500 % 12.23 C
1397 18-07-2019 04:00:00 13.24167 C 92.9167 % 12.12 C
1398 18-07-2019 05:00:00 12.675 C 93.0833 % 11.59 C
1399 18-07-2019 06:00:00 12.45833 C 94.3333 % 11.57 C
1400 18-07-2019 07:00:00 13.25833 C 95.0000 % 12.48 C
Sensor: Nr:Datum:Temp:Feuchte:Taupunkt:
Aussen-T/F 1401 18-07-2019 08:00:00 14.31667 C 93.1667 % 13.23 C
1402 18-07-2019 09:00:00 16.21667 C 89.0833 % 14.42 C
1403 18-07-2019 10:00:00 18.83333 C 81.3333 % 15.57 C
1404 18-07-2019 11:00:00 21.89167 C 64.4167 % 14.88 C
1405 18-07-2019 12:00:00 24.18333 C 54.1667 % 14.34 C
1406 18-07-2019 13:00:00 25.71667 C 49.0833 % 14.23 C
1407 18-07-2019 14:00:00 27.20833 C 41.0833 % 12.85 C
1408 18-07-2019 15:00:00 26.04167 C 44.9167 % 13.16 C
1409 18-07-2019 16:00:00 24.76667 C 52.4167 % 14.37 C
1410 18-07-2019 17:00:00 24.84167 C 56.0833 % 15.49 C
1411 18-07-2019 18:00:00 23.975 C 62.7500 % 16.44 C
1412 18-07-2019 19:00:00 21.06667 C 74.2500 % 16.31 C
1413 18-07-2019 20:00:00 20.86667 C 70.0000 % 15.19 C
1414 18-07-2019 21:00:00 20.35 C 69.0833 % 14.49 C
1415 18-07-2019 22:00:00 19.66667 C 71.6667 % 14.41 C
1416 18-07-2019 23:00:00 19.35833 C 72.5000 % 14.29 C
1417 19-07-2019 00:00:00 19.33333 C 74.0833 % 14.6 C
1418 19-07-2019 01:00:00 18.45833 C 82.4167 % 15.41 C
1419 19-07-2019 02:00:00 17.05833 C 89.9167 % 15.39 C
1420 19-07-2019 03:00:00 16.60833 C 92.3333 % 15.36 C
1421 19-07-2019 04:00:00 16.375 C 93.4167 % 15.31 C
1422 19-07-2019 05:00:00 16.3 C 94.1667 % 15.36 C
1423 19-07-2019 06:00:00 16.35 C 95.0000 % 15.55 C
1424 19-07-2019 07:00:00 16.7 C 95.2500 % 15.94 C
1425 19-07-2019 08:00:00 17.23333 C 96.0000 % 16.59 C
Sensor: Nr:Datum:Temp:Feuchte:Taupunkt:
Aussen-T/F 1426 19-07-2019 09:00:00 18.025 C 94.8333 % 17.18 C
1427 19-07-2019 10:00:00 19.275 C 90.3333 % 17.65 C
1428 19-07-2019 11:00:00 20.475 C 83.6667 % 17.62 C
1429 19-07-2019 12:00:00 20.04167 C 86.1667 % 17.66 C
1430 19-07-2019 13:00:00 21.975 C 74.8333 % 17.31 C
1431 19-07-2019 14:00:00 23.525 C 60.9167 % 15.55 C
1432 19-07-2019 15:00:00 24.875 C 52.8333 % 14.59 C
1433 19-07-2019 16:00:00 25.21667 C 50.5833 % 14.23 C
1434 19-07-2019 17:00:00 25.91667 C 49.5833 % 14.57 C
1435 19-07-2019 18:00:00 25.43333 C 51.0833 % 14.59 C
1436 19-07-2019 19:00:00 24.78333 C 60.1667 % 16.54 C
1437 19-07-2019 20:00:00 23.25833 C 64.2500 % 16.13 C
1438 19-07-2019 21:00:00 20.90833 C 71.5833 % 15.58 C
1439 19-07-2019 22:00:00 19.20833 C 79.0833 % 15.5 C
1440 19-07-2019 23:00:00 18.525 C 82.9167 % 15.57 C
1441 20-07-2019 00:00:00 17.39167 C 86.1667 % 15.06 C
1442 20-07-2019 01:00:00 16.6 C 88.2500 % 14.65 C
1443 20-07-2019 02:00:00 15.74167 C 90.5000 % 14.19 C
1444 20-07-2019 03:00:00 15.025 C 92.4167 % 13.81 C
1445 20-07-2019 04:00:00 14.55833 C 93.4167 % 13.51 C
1446 20-07-2019 05:00:00 14.18333 C 94.0833 % 13.25 C
1447 20-07-2019 06:00:00 13.96667 C 94.9167 % 13.17 C
1448 20-07-2019 07:00:00 14.56667 C 95.7500 % 13.9 C
1449 20-07-2019 08:00:00 15.86667 C 96.0000 % 15.23 C
1450 20-07-2019 09:00:00 17.73333 C 94.8333 % 16.89 C
Sensor: Nr:Datum:Temp:Feuchte:Taupunkt:
Aussen-T/F 1451 20-07-2019 10:00:00 21.4 C 87.2500 % 19.19 C
1452 20-07-2019 11:00:00 25.8 C 63.2500 % 18.28 C
1453 20-07-2019 12:00:00 27.775 C 51.4167 % 16.84 C
1454 20-07-2019 13:00:00 28.175 C 50.5000 % 16.92 C
1455 20-07-2019 14:00:00 30.04167 C 45.4167 % 16.95 C
1456 20-07-2019 15:00:00 30.8 C 43.7500 % 17.04 C
1457 20-07-2019 16:00:00 28.94167 C 64.4167 % 21.55 C
1458 20-07-2019 17:00:00 28.35 C 60.9167 % 20.08 C
1459 20-07-2019 18:00:00 28.925 C 49.3333 % 17.24 C
1460 20-07-2019 19:00:00 27.50833 C 53.5833 % 17.25 C
1461 20-07-2019 20:00:00 23.425 C 69.5833 % 17.55 C
1462 20-07-2019 21:00:00 21.725 C 76.0833 % 17.33 C
1463 20-07-2019 22:00:00 20.56667 C 80.0833 % 17.01 C
1464 20-07-2019 23:00:00 19.75 C 83.5833 % 16.89 C
1465 21-07-2019 00:00:00 19.08333 C 85.6667 % 16.63 C
1466 21-07-2019 01:00:00 18.58333 C 87.9167 % 16.54 C
1467 21-07-2019 02:00:00 18.875 C 87.7500 % 16.8 C
1468 21-07-2019 03:00:00 18.65 C 88.6667 % 16.74 C
1469 21-07-2019 04:00:00 17.95 C 89.3333 % 16.17 C
1470 21-07-2019 05:00:00 17.46667 C 91.1667 % 16.01 C
1471 21-07-2019 06:00:00 17.73333 C 91.6667 % 16.36 C
1472 21-07-2019 07:00:00 18.5 C 89.1667 % 16.68 C
1473 21-07-2019 08:00:00 19.34167 C 80.4167 % 15.89 C
1474 21-07-2019 09:00:00 20.30833 C 74.0000 % 15.52 C
1475 21-07-2019 10:00:00 21.85833 C 66.2500 % 15.28 C
Sensor: Nr:Datum:Temp:Feuchte:Taupunkt:
Aussen-T/F 1476 21-07-2019 11:00:00 23.79167 C 53.8333 % 13.88 C
1477 21-07-2019 12:00:00 24.96667 C 51.0833 % 14.16 C
1478 21-07-2019 13:00:00 24.95833 C 53.2500 % 14.79 C
1479 21-07-2019 14:00:00 26.01667 C 51.0833 % 15.12 C
1480 21-07-2019 15:00:00 26.84167 C 48.3333 % 15.02 C
1481 21-07-2019 16:00:00 27.76667 C 45.9167 % 15.06 C
1482 21-07-2019 17:00:00 27.275 C 47.5833 % 15.17 C
1483 21-07-2019 18:00:00 26.44167 C 49.2500 % 14.94 C
1484 21-07-2019 19:00:00 25.40833 C 52.1667 % 14.89 C
1485 21-07-2019 20:00:00 24.4 C 54.8333 % 14.73 C
1486 21-07-2019 21:00:00 22.64167 C 61.1667 % 14.78 C
1487 21-07-2019 22:00:00 19.85 C 71.5000 % 14.55 C
1488 21-07-2019 23:00:00 18.35 C 78.1667 % 14.48 C
1489 22-07-2019 00:00:00 17.075 C 81.0833 % 13.81 C
1490 22-07-2019 01:00:00 16.15833 C 84.1667 % 13.48 C
1491 22-07-2019 02:00:00 15.64167 C 87.4167 % 13.56 C
1492 22-07-2019 03:00:00 15.33333 C 88.3333 % 13.42 C
1493 22-07-2019 04:00:00 14.74167 C 89.5000 % 13.03 C
1494 22-07-2019 05:00:00 14.3 C 90.9167 % 12.84 C
1495 22-07-2019 06:00:00 14.175 C 91.8333 % 12.87 C
1496 22-07-2019 07:00:00 14.725 C 92.7500 % 13.56 C
1497 22-07-2019 08:00:00 16.28333 C 89.2500 % 14.51 C
1498 22-07-2019 09:00:00 18.20833 C 83.9167 % 15.45 C
1499 22-07-2019 10:00:00 20.80833 C 74.2500 % 16.06 C
1500 22-07-2019 11:00:00 24.00833 C 58.0000 % 15.24 C
Sensor: Nr:Datum:Temp:Feuchte:Taupunkt:
Aussen-T/F 1501 22-07-2019 12:00:00 25.55833 C 52.5833 % 15.15 C
1502 22-07-2019 13:00:00 26.41667 C 50.1667 % 15.21 C
1503 22-07-2019 14:00:00 27.775 C 45.7500 % 15.01 C
1504 22-07-2019 15:00:00 29.05 C 43.0833 % 15.23 C
1505 22-07-2019 16:00:00 30.80833 C 38.7500 % 15.15 C
1506 22-07-2019 17:00:00 31.51667 C 36.8333 % 14.99 C
1507 22-07-2019 18:00:00 32.31667 C 35.3333 % 15.04 C
1508 22-07-2019 19:00:00 31.475 C 36.3333 % 14.74 C
1509 22-07-2019 20:00:00 29.425 C 42.9167 % 15.51 C
1510 22-07-2019 21:00:00 25.59167 C 56.5000 % 16.3 C
1511 22-07-2019 22:00:00 22.85 C 63.6667 % 15.6 C
1512 22-07-2019 23:00:00 20.925 C 71.0000 % 15.47 C
1513 23-07-2019 00:00:00 19.4 C 76.2500 % 15.11 C
1514 23-07-2019 01:00:00 18.375 C 79.8333 % 14.83 C
1515 23-07-2019 02:00:00 17.55833 C 82.5000 % 14.55 C
1516 23-07-2019 03:00:00 16.84167 C 85.0833 % 14.32 C
1517 23-07-2019 04:00:00 16.29167 C 87.4167 % 14.2 C
1518 23-07-2019 05:00:00 15.825 C 89.0833 % 14.03 C
1519 23-07-2019 06:00:00 15.65833 C 90.8333 % 14.17 C
1520 23-07-2019 07:00:00 16.10833 C 91.0000 % 14.64 C
1521 23-07-2019 08:00:00 16.83333 C 90.5833 % 15.28 C
1522 23-07-2019 09:00:00 18.70833 C 87.0833 % 16.52 C
1523 23-07-2019 10:00:00 22.425 C 75.0000 % 17.77 C
1524 23-07-2019 11:00:00 27.35 C 53.3333 % 17.03 C
1525 23-07-2019 12:00:00 29.59167 C 44.0000 % 16.05 C
Sensor: Nr:Datum:Temp:Feuchte:Taupunkt:
Aussen-T/F 1526 23-07-2019 13:00:00 30.78333 C 39.9167 % 15.59 C
1527 23-07-2019 14:00:00 32.11667 C 37.1667 % 15.66 C
1528 23-07-2019 15:00:00 33.90833 C 35.0833 % 16.33 C
1529 23-07-2019 16:00:00 35.8 C 30.9167 % 15.99 C
1530 23-07-2019 17:00:00 36.38333 C 28.6667 % 15.31 C
1531 23-07-2019 18:00:00 36.76667 C 28.4167 % 15.5 C
1532 23-07-2019 19:00:00 35.64167 C 30.8333 % 15.81 C
1533 23-07-2019 20:00:00 32.725 C 40.6667 % 17.61 C
1534 23-07-2019 21:00:00 28.00833 C 50.3333 % 16.72 C
1535 23-07-2019 22:00:00 25.2 C 57.8333 % 16.3 C
1536 23-07-2019 23:00:00 22.93333 C 66.0000 % 16.24 C
1537 24-07-2019 00:00:00 21.44167 C 71.5000 % 16.07 C
1538 24-07-2019 01:00:00 20.31667 C 76.4167 % 16.03 C
1539 24-07-2019 02:00:00 19.30833 C 79.0000 % 15.58 C
1540 24-07-2019 03:00:00 18.63333 C 81.7500 % 15.45 C
1541 24-07-2019 04:00:00 17.76667 C 84.5833 % 15.14 C
1542 24-07-2019 05:00:00 17.23333 C 87.0833 % 15.07 C
1543 24-07-2019 06:00:00 17.075 C 88.2500 % 15.12 C
1544 24-07-2019 07:00:00 17.26667 C 90.0000 % 15.61 C
1545 24-07-2019 08:00:00 18.325 C 88.8333 % 16.45 C
1546 24-07-2019 09:00:00 20.23333 C 85.3333 % 17.69 C
1547 24-07-2019 10:00:00 23.75 C 72.4167 % 18.49 C
1548 24-07-2019 11:00:00 27.43333 C 59.5000 % 18.84 C
1549 24-07-2019 12:00:00 32.04167 C 41.6667 % 17.39 C
1550 24-07-2019 13:00:00 34.175 C 29.0833 % 13.64 C
Sensor: Nr:Datum:Temp:Feuchte:Taupunkt:
Aussen-T/F 1551 24-07-2019 14:00:00 35.31667 C 26.8333 % 13.38 C
1552 24-07-2019 15:00:00 36.975 C 26.0000 % 14.29 C
1553 24-07-2019 16:00:00 39.59167 C 23.0833 % 14.64 C
1554 24-07-2019 17:00:00 39.60833 C 22.9167 % 14.54 C
1555 24-07-2019 18:00:00 39.31667 C 22.6667 % 14.13 C
1556 24-07-2019 19:00:00 38.49167 C 27.5833 % 16.49 C
1557 24-07-2019 20:00:00 33.13333 C 40.0000 % 17.71 C
1558 24-07-2019 21:00:00 28.825 C 48.8333 % 16.99 C
1559 24-07-2019 22:00:00 27.375 C 52.0000 % 16.65 C
1560 24-07-2019 23:00:00 25.58333 C 58.3333 % 16.8 C
1561 25-07-2019 00:00:00 23.68333 C 63.0833 % 16.24 C
1562 25-07-2019 01:00:00 22.53333 C 66.5833 % 16 C
1563 25-07-2019 02:00:00 21.6 C 70.5000 % 16.01 C
1564 25-07-2019 03:00:00 20.89167 C 73.9167 % 16.07 C
1565 25-07-2019 04:00:00 20.075 C 77.7500 % 16.07 C
1566 25-07-2019 05:00:00 19.35833 C 80.0000 % 15.82 C
1567 25-07-2019 06:00:00 19.19167 C 82.2500 % 16.09 C
1568 25-07-2019 07:00:00 19.55833 C 83.8333 % 16.75 C
1569 25-07-2019 08:00:00 20.73333 C 82.7500 % 17.69 C
1570 25-07-2019 09:00:00 22.75833 C 76.9167 % 18.5 C
1571 25-07-2019 10:00:00 25.84167 C 66.6667 % 19.16 C
1572 25-07-2019 11:00:00 29.93333 C 53.3333 % 19.41 C
1573 25-07-2019 12:00:00 34.525 C 35.4167 % 17.02 C
1574 25-07-2019 13:00:00 36.46667 C 31.0000 % 16.6 C
1575 25-07-2019 14:00:00 37.425 C 28.8333 % 16.28 C
Sensor: Nr:Datum:Temp:Feuchte:Taupunkt:
Aussen-T/F 1576 25-07-2019 15:00:00 38.79167 C 26.3333 % 16.02 C
1577 25-07-2019 16:00:00 40.15 C 23.6667 % 15.49 C
1578 25-07-2019 17:00:00 39.80833 C 22.5833 % 14.48 C
1579 25-07-2019 18:00:00 39.09167 C 23.5000 % 14.5 C
1580 25-07-2019 19:00:00 36.66667 C 33.4167 % 17.96 C
1581 25-07-2019 20:00:00 32.81667 C 41.8333 % 18.14 C
1582 25-07-2019 21:00:00 30.34167 C 44.6667 % 16.96 C
1583 25-07-2019 22:00:00 28.75833 C 47.2500 % 16.41 C
1584 25-07-2019 23:00:00 27.56667 C 49.6667 % 16.1 C
1585 26-07-2019 00:00:00 26.19167 C 53.4167 % 15.98 C
1586 26-07-2019 01:00:00 25 C 57.0833 % 15.91 C
1587 26-07-2019 02:00:00 22.51667 C 67.0000 % 16.08 C
1588 26-07-2019 03:00:00 20.99167 C 71.6667 % 15.68 C
1589 26-07-2019 04:00:00 20.125 C 76.5833 % 15.88 C
1590 26-07-2019 05:00:00 19.29167 C 79.0000 % 15.56 C
1591 26-07-2019 06:00:00 18.95833 C 80.3333 % 15.5 C
1592 26-07-2019 07:00:00 19.61667 C 82.5000 % 16.56 C
1593 26-07-2019 08:00:00 21.10833 C 80.0000 % 17.52 C
1594 26-07-2019 09:00:00 23.50833 C 69.2500 % 17.55 C
1595 26-07-2019 10:00:00 28.225 C 49.5000 % 16.65 C
1596 26-07-2019 11:00:00 32.05 C 38.8333 % 16.28 C
1597 26-07-2019 12:00:00 34.35 C 34.5000 % 16.45 C
1598 26-07-2019 13:00:00 36.00833 C 30.9167 % 16.16 C
1599 26-07-2019 14:00:00 37.35833 C 26.7500 % 15.06 C
1600 26-07-2019 15:00:00 37.1 C 28.3333 % 15.73 C
Sensor: Nr:Datum:Temp:Feuchte:Taupunkt:
Aussen-T/F 1601 26-07-2019 16:00:00 35.28333 C 34.0000 % 17.03 C
1602 26-07-2019 17:00:00 32.5 C 42.4167 % 18.08 C
1603 26-07-2019 18:00:00 30.44167 C 45.5000 % 17.34 C
1604 26-07-2019 19:00:00 28.825 C 52.1667 % 18.04 C
1605 26-07-2019 20:00:00 27.525 C 57.7500 % 18.45 C
1606 26-07-2019 21:00:00 26.33333 C 59.3333 % 17.77 C
1607 26-07-2019 22:00:00 25.5 C 62.0833 % 17.7 C
1608 26-07-2019 23:00:00 24.35833 C 66.7500 % 17.78 C
1609 27-07-2019 00:00:00 23.15 C 70.2500 % 17.43 C
1610 27-07-2019 01:00:00 22.63333 C 73.2500 % 17.6 C
1611 27-07-2019 02:00:00 22.33333 C 75.1667 % 17.72 C
1612 27-07-2019 03:00:00 22.59167 C 74.7500 % 17.88 C
1613 27-07-2019 04:00:00 20.9 C 86.4167 % 18.55 C
1614 27-07-2019 05:00:00 20.275 C 88.7500 % 18.36 C
1615 27-07-2019 06:00:00 20.525 C 88.5833 % 18.57 C
1616 27-07-2019 07:00:00 21.25 C 88.1667 % 19.21 C
1617 27-07-2019 08:00:00 22.575 C 81.4167 % 19.23 C
1618 27-07-2019 09:00:00 24.725 C 73.5000 % 19.67 C
1619 27-07-2019 10:00:00 24.64167 C 81.6667 % 21.29 C
1620 27-07-2019 11:00:00 23.94167 C 86.5833 % 21.56 C
1621 27-07-2019 12:00:00 23.75 C 83.5000 % 20.79 C
1622 27-07-2019 13:00:00 26 C 73.8333 % 20.97 C
1623 27-07-2019 14:00:00 25.725 C 71.0833 % 20.09 C
1624 27-07-2019 15:00:00 25.04167 C 74.0833 % 20.1 C
1625 27-07-2019 16:00:00 25.96667 C 68.5000 % 19.72 C
Sensor: Nr:Datum:Temp:Feuchte:Taupunkt:
Aussen-T/F 1626 27-07-2019 17:00:00 24.49167 C 75.9167 % 19.96 C
1627 27-07-2019 18:00:00 24.90833 C 75.7500 % 20.33 C
1628 27-07-2019 19:00:00 23.84167 C 80.7500 % 20.33 C
1629 27-07-2019 20:00:00 22.88333 C 84.9167 % 20.21 C
1630 27-07-2019 21:00:00 22.075 C 85.6667 % 19.56 C
1631 27-07-2019 22:00:00 21.45 C 87.1667 % 19.23 C
1632 27-07-2019 23:00:00 21.14167 C 88.7500 % 19.21 C
1633 28-07-2019 00:00:00 20.83333 C 89.9167 % 19.12 C
1634 28-07-2019 01:00:00 20.70833 C 90.0000 % 19.01 C
1635 28-07-2019 02:00:00 20.7 C 90.0000 % 19 C
1636 28-07-2019 03:00:00 20.68333 C 90.0000 % 18.98 C
1637 28-07-2019 04:00:00 20.60833 C 90.8333 % 19.06 C
1638 28-07-2019 05:00:00 20.55 C 91.0000 % 19.03 C
1639 28-07-2019 06:00:00 20.54167 C 91.0000 % 19.02 C
1640 28-07-2019 07:00:00 20.69167 C 90.0000 % 18.99 C
1641 28-07-2019 08:00:00 20.71667 C 89.0833 % 18.85 C
1642 28-07-2019 09:00:00 20.425 C 90.3333 % 18.79 C
1643 28-07-2019 10:00:00 20.025 C 91.8333 % 18.66 C
1644 28-07-2019 11:00:00 20.08333 C 91.8333 % 18.71 C
1645 28-07-2019 12:00:00 20.50833 C 87.8333 % 18.42 C
1646 28-07-2019 13:00:00 20.30833 C 87.3333 % 18.13 C
1647 28-07-2019 14:00:00 19.98333 C 89.2500 % 18.16 C
1648 28-07-2019 15:00:00 19.90833 C 88.1667 % 17.89 C
1649 28-07-2019 16:00:00 19.81667 C 87.6667 % 17.71 C
1650 28-07-2019 17:00:00 19.45833 C 89.8333 % 17.75 C
Sensor: Nr:Datum:Temp:Feuchte:Taupunkt:
Aussen-T/F 1651 28-07-2019 18:00:00 19.175 C 90.4167 % 17.57 C
1652 28-07-2019 19:00:00 18.875 C 91.5833 % 17.47 C
1653 28-07-2019 20:00:00 18.5 C 92.7500 % 17.3 C
1654 28-07-2019 21:00:00 18.175 C 93.8333 % 17.17 C
1655 28-07-2019 22:00:00 17.90833 C 94.7500 % 17.05 C
1656 28-07-2019 23:00:00 17.6 C 95.0000 % 16.79 C
1657 29-07-2019 00:00:00 17.325 C 95.0000 % 16.52 C
1658 29-07-2019 01:00:00 17.10833 C 95.0000 % 16.3 C
1659 29-07-2019 02:00:00 16.975 C 95.7500 % 16.29 C
1660 29-07-2019 03:00:00 16.84167 C 96.0000 % 16.2 C
1661 29-07-2019 04:00:00 16.80833 C 96.0000 % 16.17 C
1662 29-07-2019 05:00:00 16.74167 C 96.0000 % 16.1 C
1663 29-07-2019 06:00:00 16.725 C 96.0000 % 16.08 C
1664 29-07-2019 07:00:00 16.99167 C 95.7500 % 16.31 C
1665 29-07-2019 08:00:00 17.46667 C 92.5833 % 16.25 C
1666 29-07-2019 09:00:00 18.49167 C 86.3333 % 16.17 C
1667 29-07-2019 10:00:00 19.39167 C 79.3333 % 15.72 C
1668 29-07-2019 11:00:00 20.475 C 73.7500 % 15.63 C
1669 29-07-2019 12:00:00 21.95 C 66.4167 % 15.41 C
1670 29-07-2019 13:00:00 23.25 C 62.0000 % 15.56 C
1671 29-07-2019 14:00:00 24.41667 C 57.5000 % 15.48 C
1672 29-07-2019 15:00:00 25.83333 C 51.4167 % 15.05 C
1673 29-07-2019 16:00:00 27.6 C 45.7500 % 14.85 C
1674 29-07-2019 17:00:00 28.23333 C 43.2500 % 14.56 C
1675 29-07-2019 18:00:00 27.70833 C 43.5000 % 14.17 C
Sensor: Nr:Datum:Temp:Feuchte:Taupunkt:
Aussen-T/F 1676 29-07-2019 19:00:00 28.1 C 43.3333 % 14.46 C
1677 29-07-2019 20:00:00 26.33333 C 49.1667 % 14.82 C
1678 29-07-2019 21:00:00 23.05833 C 61.6667 % 15.3 C
1679 29-07-2019 22:00:00 20.75833 C 69.6667 % 15.02 C
1680 29-07-2019 23:00:00 19.34167 C 75.5833 % 14.92 C
1681 30-07-2019 00:00:00 17.95 C 81.0833 % 14.66 C
1682 30-07-2019 01:00:00 17.425 C 83.5000 % 14.6 C
1683 30-07-2019 02:00:00 16.6 C 85.5000 % 14.16 C
1684 30-07-2019 03:00:00 15.875 C 88.1667 % 13.92 C
1685 30-07-2019 04:00:00 15.4 C 90.0833 % 13.78 C
1686 30-07-2019 05:00:00 15.03333 C 91.5000 % 13.66 C
1687 30-07-2019 06:00:00 14.725 C 92.8333 % 13.58 C
1688 30-07-2019 07:00:00 14.93333 C 93.8333 % 13.95 C
1689 30-07-2019 08:00:00 15.88333 C 93.9167 % 14.91 C
1690 30-07-2019 09:00:00 17.4 C 91.8333 % 16.06 C
1691 30-07-2019 10:00:00 20.275 C 82.2500 % 17.15 C
1692 30-07-2019 11:00:00 24.96667 C 57.9167 % 16.11 C
1693 30-07-2019 12:00:00 27.025 C 45.5000 % 14.25 C
1694 30-07-2019 13:00:00 28.24167 C 39.2500 % 13.07 C
1695 30-07-2019 14:00:00 29.49167 C 37.6667 % 13.55 C
1696 30-07-2019 15:00:00 30.69167 C 36.0833 % 13.94 C
1697 30-07-2019 16:00:00 31.20833 C 34.2500 % 13.59 C
1698 30-07-2019 17:00:00 29.30833 C 37.8333 % 13.45 C
1699 30-07-2019 18:00:00 26.625 C 40.7500 % 12.2 C
1700 30-07-2019 19:00:00 24.55833 C 51.0833 % 13.78 C
Sensor: Nr:Datum:Temp:Feuchte:Taupunkt:
Aussen-T/F 1701 30-07-2019 20:00:00 24.09167 C 55.1667 % 14.54 C
1702 30-07-2019 21:00:00 23.675 C 56.7500 % 14.59 C
1703 30-07-2019 22:00:00 22.20833 C 62.7500 % 14.77 C
1704 30-07-2019 23:00:00 21.175 C 68.0000 % 15.04 C
1705 31-07-2019 00:00:00 20.55 C 69.8333 % 14.85 C
1706 31-07-2019 01:00:00 20.325 C 71.0000 % 14.9 C
1707 31-07-2019 02:00:00 19.70833 C 71.6667 % 14.45 C
1708 31-07-2019 03:00:00 18.63333 C 75.0833 % 14.13 C
1709 31-07-2019 04:00:00 18.575 C 77.0000 % 14.47 C
1710 31-07-2019 05:00:00 17.83333 C 78.0000 % 13.95 C
1711 31-07-2019 06:00:00 17.64167 C 78.4167 % 13.84 C
1712 31-07-2019 07:00:00 17.375 C 79.9167 % 13.88 C
1713 31-07-2019 08:00:00 18.44167 C 75.4167 % 14.02 C
1714 31-07-2019 09:00:00 20.01667 C 67.6667 % 13.86 C
1715 31-07-2019 10:00:00 21.35833 C 58.7500 % 12.96 C
1716 31-07-2019 11:00:00 21.60833 C 55.2500 % 12.25 C
1717 31-07-2019 12:00:00 22.66667 C 50.8333 % 11.97 C
1718 31-07-2019 13:00:00 23.69167 C 47.0000 % 11.72 C
1719 31-07-2019 14:00:00 24.76667 C 42.4167 % 11.14 C
1720 31-07-2019 15:00:00 25.55 C 40.0833 % 10.99 C
1721 31-07-2019 16:00:00 24.95833 C 42.3333 % 11.28 C
1722 31-07-2019 17:00:00 25.25 C 42.9167 % 11.75 C
1723 31-07-2019 18:00:00 23.875 C 47.0833 % 11.91 C
1724 31-07-2019 19:00:00 23.49167 C 48.5000 % 12.01 C
1725 31-07-2019 20:00:00 22.09167 C 55.7500 % 12.84 C
Sensor: Nr:Datum:Temp:Feuchte:Taupunkt:
Aussen-T/F 1726 31-07-2019 21:00:00 19.925 C 59.6667 % 11.85 C
1727 31-07-2019 22:00:00 18.68333 C 61.0000 % 11.02 C
1728 31-07-2019 23:00:00 18.45 C 63.0833 % 11.3 C
1729 01-08-2019 00:00:00 16.88333 C 70.2500 % 11.44 C
1730 01-08-2019 01:00:00 15.525 C 75.0000 % 11.12 C
1731 01-08-2019 02:00:00 14.73333 C 78.9167 % 11.12 C
1732 01-08-2019 03:00:00 14.15833 C 81.0000 % 10.95 C
1733 01-08-2019 04:00:00 12.95833 C 84.9167 % 10.48 C
1734 01-08-2019 05:00:00 12.625 C 86.8333 % 10.49 C
1735 01-08-2019 06:00:00 12.125 C 88.5000 % 10.28 C
1736 01-08-2019 07:00:00 12.55833 C 89.1667 % 10.82 C
1737 01-08-2019 08:00:00 15.175 C 81.5000 % 12.03 C
1738 01-08-2019 09:00:00 17.56667 C 73.5833 % 12.8 C
1739 01-08-2019 10:00:00 20.3 C 62.4167 % 12.89 C
1740 01-08-2019 11:00:00 21.775 C 55.7500 % 12.55 C
1741 01-08-2019 12:00:00 22.45 C 53.5000 % 12.54 C
1742 01-08-2019 13:00:00 23.16667 C 53.0000 % 13.06 C
1743 01-08-2019 14:00:00 24.15 C 49.4167 % 12.9 C
1744 01-08-2019 15:00:00 24.575 C 48.9167 % 13.13 C
1745 01-08-2019 16:00:00 24.4 C 50.0000 % 13.31 C
1746 01-08-2019 17:00:00 25.13333 C 47.6667 % 13.25 C
1747 01-08-2019 18:00:00 26.35 C 44.7500 % 13.38 C
1748 01-08-2019 19:00:00 26.26667 C 45.1667 % 13.45 C
1749 01-08-2019 20:00:00 24.10833 C 53.8333 % 14.17 C
1750 01-08-2019 21:00:00 21.15 C 62.6667 % 13.75 C
Sensor: Nr:Datum:Temp:Feuchte:Taupunkt:
Aussen-T/F 1751 01-08-2019 22:00:00 19.76667 C 67.6667 % 13.62 C
1752 01-08-2019 23:00:00 19.24167 C 69.5833 % 13.55 C
1753 02-08-2019 00:00:00 18.81667 C 73.2500 % 13.93 C
1754 02-08-2019 01:00:00 18.34167 C 75.6667 % 13.97 C
1755 02-08-2019 02:00:00 17.86667 C 76.8333 % 13.75 C
1756 02-08-2019 03:00:00 16.94167 C 79.6667 % 13.41 C
1757 02-08-2019 04:00:00 16.31667 C 82.5000 % 13.33 C
1758 02-08-2019 05:00:00 16.2 C 83.6667 % 13.43 C
1759 02-08-2019 06:00:00 16.25 C 85.0000 % 13.73 C
1760 02-08-2019 07:00:00 16.925 C 84.5000 % 14.3 C
1761 02-08-2019 08:00:00 17.93333 C 82.3333 % 14.88 C
1762 02-08-2019 09:00:00 19.35 C 77.9167 % 15.4 C
1763 02-08-2019 10:00:00 20.71667 C 72.1667 % 15.52 C
1764 02-08-2019 11:00:00 22.16667 C 64.8333 % 15.24 C
1765 02-08-2019 12:00:00 21.275 C 75.5000 % 16.77 C
1766 02-08-2019 13:00:00 21.125 C 71.2500 % 15.72 C
1767 02-08-2019 14:00:00 23.16667 C 61.7500 % 15.42 C
1768 02-08-2019 15:00:00 24.58333 C 56.3333 % 15.32 C
1769 02-08-2019 16:00:00 25.59167 C 51.0833 % 14.73 C
1770 02-08-2019 17:00:00 26.725 C 46.0000 % 14.15 C
1771 02-08-2019 18:00:00 25.00833 C 53.4167 % 14.89 C
1772 02-08-2019 19:00:00 23.7 C 54.8333 % 14.08 C
1773 02-08-2019 20:00:00 22.45833 C 60.4167 % 14.42 C
1774 02-08-2019 21:00:00 21.275 C 63.5833 % 14.09 C
1775 02-08-2019 22:00:00 20.95 C 65.3333 % 14.2 C
Sensor: Nr:Datum:Temp:Feuchte:Taupunkt:
Aussen-T/F 1776 02-08-2019 23:00:00 18.975 C 78.8333 % 15.22 C
1777 03-08-2019 00:00:00 17.75833 C 84.3333 % 15.08 C
1778 03-08-2019 01:00:00 18.28333 C 82.5000 % 15.25 C
1779 03-08-2019 02:00:00 18.24167 C 84.4167 % 15.57 C
1780 03-08-2019 03:00:00 18.2 C 85.6667 % 15.76 C
1781 03-08-2019 04:00:00 18.15 C 86.9167 % 15.94 C
1782 03-08-2019 05:00:00 18.14167 C 87.0000 % 15.94 C
1783 03-08-2019 06:00:00 17.89167 C 87.2500 % 15.74 C
1784 03-08-2019 07:00:00 17.84167 C 85.6667 % 15.41 C
1785 03-08-2019 08:00:00 17.95 C 84.5000 % 15.3 C
1786 03-08-2019 09:00:00 18.6 C 79.2500 % 14.94 C
1787 03-08-2019 10:00:00 19.61667 C 75.5000 % 15.17 C
1788 03-08-2019 11:00:00 20.35833 C 73.1667 % 15.39 C
1789 03-08-2019 12:00:00 21.55833 C 66.9167 % 15.15 C
1790 03-08-2019 13:00:00 22.05 C 66.3333 % 15.48 C
1791 03-08-2019 14:00:00 22.20833 C 65.8333 % 15.52 C
1792 03-08-2019 15:00:00 23.80833 C 58.0000 % 15.05 C
1793 03-08-2019 16:00:00 25.16667 C 53.1667 % 14.96 C
1794 03-08-2019 17:00:00 25.49167 C 51.0000 % 14.61 C
1795 03-08-2019 18:00:00 25.46667 C 51.0000 % 14.59 C
1796 03-08-2019 19:00:00 24.30833 C 54.5000 % 14.55 C
1797 03-08-2019 20:00:00 22.61667 C 59.8333 % 14.42 C
1798 03-08-2019 21:00:00 20.55833 C 65.7500 % 13.93 C
1799 03-08-2019 22:00:00 18.10833 C 74.1667 % 13.44 C
1800 03-08-2019 23:00:00 17.05 C 79.3333 % 13.45 C
Sensor: Nr:Datum:Temp:Feuchte:Taupunkt:
Aussen-T/F 1801 04-08-2019 00:00:00 16.225 C 81.8333 % 13.12 C
1802 04-08-2019 01:00:00 15.125 C 85.5000 % 12.71 C
1803 04-08-2019 02:00:00 14 C 88.7500 % 12.17 C
1804 04-08-2019 03:00:00 13.3 C 90.9167 % 11.85 C
1805 04-08-2019 04:00:00 12.88333 C 92.0833 % 11.63 C
1806 04-08-2019 05:00:00 12.49167 C 93.0000 % 11.39 C
1807 04-08-2019 06:00:00 12.34167 C 93.8333 % 11.38 C
1808 04-08-2019 07:00:00 12.725 C 94.4167 % 11.85 C
1809 04-08-2019 08:00:00 13.73333 C 95.0000 % 12.95 C
1810 04-08-2019 09:00:00 15.34167 C 93.0833 % 14.23 C
1811 04-08-2019 10:00:00 18.10833 C 83.3333 % 15.24 C
1812 04-08-2019 11:00:00 21.31667 C 67.5000 % 15.06 C
1813 04-08-2019 12:00:00 23.3 C 59.5000 % 14.97 C
1814 04-08-2019 13:00:00 24.75 C 53.6667 % 14.72 C
1815 04-08-2019 14:00:00 25.86667 C 48.5833 % 14.21 C
1816 04-08-2019 15:00:00 28.225 C 40.6667 % 13.6 C
1817 04-08-2019 16:00:00 30.03333 C 34.5000 % 12.68 C
1818 04-08-2019 17:00:00 30.95833 C 32.0833 % 12.38 C
1819 04-08-2019 18:00:00 30.79167 C 33.7500 % 13.01 C
1820 04-08-2019 19:00:00 28.75833 C 41.6667 % 14.45 C
1821 04-08-2019 20:00:00 25.78333 C 51.9167 % 15.16 C
1822 04-08-2019 21:00:00 22.51667 C 60.3333 % 14.45 C
1823 04-08-2019 22:00:00 21.95833 C 63.6667 % 14.76 C
1824 04-08-2019 23:00:00 22.39167 C 61.2500 % 14.57 C
1825 05-08-2019 00:00:00 22.875 C 57.8333 % 14.13 C
Sensor: Nr:Datum:Temp:Feuchte:Taupunkt:
Aussen-T/F 1826 05-08-2019 01:00:00 21.65833 C 62.4167 % 14.17 C
1827 05-08-2019 02:00:00 20.28333 C 66.8333 % 13.92 C
1828 05-08-2019 03:00:00 19.6 C 69.6667 % 13.91 C
1829 05-08-2019 04:00:00 19.31667 C 75.7500 % 14.93 C
1830 05-08-2019 05:00:00 19.325 C 78.0000 % 15.39 C
1831 05-08-2019 06:00:00 18.28333 C 87.3333 % 16.14 C
1832 05-08-2019 07:00:00 17.53333 C 92.3333 % 16.28 C
1833 05-08-2019 08:00:00 17.64167 C 94.5000 % 16.75 C
1834 05-08-2019 09:00:00 18.75 C 94.9167 % 17.92 C
1835 05-08-2019 10:00:00 20.08333 C 92.5833 % 18.84 C
1836 05-08-2019 11:00:00 21.99167 C 84.0833 % 19.18 C
1837 05-08-2019 12:00:00 24.25 C 68.7500 % 18.14 C
1838 05-08-2019 13:00:00 26 C 59.7500 % 17.57 C
1839 05-08-2019 14:00:00 27.11667 C 54.6667 % 17.2 C
1840 05-08-2019 15:00:00 28.375 C 46.5000 % 15.81 C
1841 05-08-2019 16:00:00 28.875 C 41.3333 % 14.43 C
1842 05-08-2019 17:00:00 28.225 C 42.0833 % 14.13 C
1843 05-08-2019 18:00:00 27.7 C 42.1667 % 13.68 C
1844 05-08-2019 19:00:00 26.7 C 46.4167 % 14.26 C
1845 05-08-2019 20:00:00 25.1 C 53.5833 % 15.02 C
1846 05-08-2019 21:00:00 22.075 C 61.1667 % 14.25 C
1847 05-08-2019 22:00:00 20.53333 C 69.3333 % 14.73 C
1848 05-08-2019 23:00:00 19.28333 C 74.0000 % 14.54 C
1849 06-08-2019 00:00:00 18.00833 C 78.2500 % 14.17 C
1850 06-08-2019 01:00:00 17.10833 C 81.4167 % 13.9 C
Sensor: Nr:Datum:Temp:Feuchte:Taupunkt:
Aussen-T/F 1851 06-08-2019 02:00:00 17.00833 C 82.9167 % 14.09 C
1852 06-08-2019 03:00:00 17.45833 C 83.0833 % 14.56 C
1853 06-08-2019 04:00:00 17.20833 C 83.8333 % 14.45 C
1854 06-08-2019 05:00:00 16.60833 C 85.6667 % 14.2 C
1855 06-08-2019 06:00:00 16.66667 C 86.5833 % 14.42 C
1856 06-08-2019 07:00:00 17.83333 C 83.2500 % 14.95 C
1857 06-08-2019 08:00:00 18.675 C 81.0833 % 15.37 C
1858 06-08-2019 09:00:00 20.1 C 76.5000 % 15.84 C
1859 06-08-2019 10:00:00 19.91667 C 83.7500 % 17.09 C
1860 06-08-2019 11:00:00 19.65 C 89.1667 % 17.82 C
1861 06-08-2019 12:00:00 21.31667 C 82.2500 % 18.17 C
1862 06-08-2019 13:00:00 22.325 C 77.4167 % 18.18 C
1863 06-08-2019 14:00:00 23.61667 C 69.8333 % 17.79 C
1864 06-08-2019 15:00:00 24.725 C 64.7500 % 17.64 C
1865 06-08-2019 16:00:00 25.39167 C 61.9167 % 17.56 C
1866 06-08-2019 17:00:00 26.4 C 57.5000 % 17.33 C
1867 06-08-2019 18:00:00 25.20833 C 61.8333 % 17.37 C
1868 06-08-2019 19:00:00 22.54167 C 76.7500 % 18.25 C
1869 06-08-2019 20:00:00 19.05 C 90.4167 % 17.44 C
1870 06-08-2019 21:00:00 18.00833 C 93.1667 % 16.89 C
1871 06-08-2019 22:00:00 17.51667 C 94.0000 % 16.54 C
1872 06-08-2019 23:00:00 17.08333 C 94.9167 % 16.26 C
1873 07-08-2019 00:00:00 16.68333 C 95.0000 % 15.88 C
1874 07-08-2019 01:00:00 16.3 C 95.5000 % 15.58 C
1875 07-08-2019 02:00:00 16.45833 C 96.0000 % 15.82 C
Sensor: Nr:Datum:Temp:Feuchte:Taupunkt:
Aussen-T/F 1876 07-08-2019 03:00:00 16.58333 C 96.2500 % 15.98 C
1877 07-08-2019 04:00:00 16.63333 C 97.0000 % 16.15 C
1878 07-08-2019 05:00:00 16.66667 C 97.0000 % 16.19 C
1879 07-08-2019 06:00:00 16.875 C 97.0000 % 16.4 C
1880 07-08-2019 07:00:00 17.25 C 97.0000 % 16.77 C
1881 07-08-2019 08:00:00 17.75833 C 97.0000 % 17.28 C
1882 07-08-2019 09:00:00 18.25 C 97.0000 % 17.77 C
1883 07-08-2019 10:00:00 18.96667 C 96.4167 % 18.38 C
1884 07-08-2019 11:00:00 19.725 C 93.0833 % 18.57 C
1885 07-08-2019 12:00:00 20.83333 C 84.5000 % 18.12 C
1886 07-08-2019 13:00:00 21.85833 C 76.3333 % 17.51 C
1887 07-08-2019 14:00:00 22.525 C 75.3333 % 17.94 C
1888 07-08-2019 15:00:00 22.59167 C 72.9167 % 17.49 C
1889 07-08-2019 16:00:00 22.08333 C 72.8333 % 16.98 C
1890 07-08-2019 17:00:00 22.53333 C 71.2500 % 17.07 C
1891 07-08-2019 18:00:00 23.35833 C 68.4167 % 17.21 C
1892 07-08-2019 19:00:00 22.38333 C 73.7500 % 17.47 C
1893 07-08-2019 20:00:00 20.05833 C 83.5000 % 17.18 C
1894 07-08-2019 21:00:00 18.05 C 86.7500 % 15.81 C
1895 07-08-2019 22:00:00 16.74167 C 89.7500 % 15.05 C
1896 07-08-2019 23:00:00 16.64167 C 89.1667 % 14.85 C
1897 08-08-2019 00:00:00 15.76667 C 91.4167 % 14.37 C
1898 08-08-2019 01:00:00 16.35 C 92.0000 % 15.05 C
1899 08-08-2019 02:00:00 16.45 C 92.0000 % 15.15 C
1900 08-08-2019 03:00:00 16.44167 C 91.9167 % 15.12 C
Sensor: Nr:Datum:Temp:Feuchte:Taupunkt:
Aussen-T/F 1901 08-08-2019 04:00:00 16.06667 C 92.6667 % 14.88 C
1902 08-08-2019 05:00:00 15.31667 C 93.2500 % 14.23 C
1903 08-08-2019 06:00:00 15.7 C 94.0000 % 14.74 C
1904 08-08-2019 07:00:00 15.95 C 93.5833 % 14.92 C
1905 08-08-2019 08:00:00 17.05833 C 91.1667 % 15.61 C
1906 08-08-2019 09:00:00 18.55833 C 84.0833 % 15.82 C
1907 08-08-2019 10:00:00 20.05833 C 73.0000 % 15.07 C
1908 08-08-2019 11:00:00 21.74167 C 65.7500 % 15.05 C
1909 08-08-2019 12:00:00 22.99167 C 61.1667 % 15.11 C
1910 08-08-2019 13:00:00 24.025 C 57.4167 % 15.1 C
1911 08-08-2019 14:00:00 24.20833 C 57.3333 % 15.24 C
1912 08-08-2019 15:00:00 24.51667 C 57.1667 % 15.49 C
1913 08-08-2019 16:00:00 26.58333 C 51.4167 % 15.74 C
1914 08-08-2019 17:00:00 27.18333 C 48.1667 % 15.28 C
1915 08-08-2019 18:00:00 27.46667 C 47.3333 % 15.26 C
1916 08-08-2019 19:00:00 25.43333 C 62.0833 % 17.64 C
1917 08-08-2019 20:00:00 23.575 C 67.5833 % 17.23 C
1918 08-08-2019 21:00:00 20.625 C 76.4167 % 16.33 C
1919 08-08-2019 22:00:00 19.15833 C 83.1667 % 16.23 C
1920 08-08-2019 23:00:00 18.16667 C 87.5000 % 16.06 C
1921 09-08-2019 00:00:00 17.15833 C 89.4167 % 15.4 C
1922 09-08-2019 01:00:00 16.25833 C 91.2500 % 14.83 C
1923 09-08-2019 02:00:00 15.875 C 92.0000 % 14.58 C
1924 09-08-2019 03:00:00 15.21667 C 92.7500 % 14.05 C
1925 09-08-2019 04:00:00 14.725 C 93.6667 % 13.71 C
Sensor: Nr:Datum:Temp:Feuchte:Taupunkt:
Aussen-T/F 1926 09-08-2019 05:00:00 14.44167 C 94.0833 % 13.5 C
1927 09-08-2019 06:00:00 14.56667 C 95.0000 % 13.78 C
1928 09-08-2019 07:00:00 15.40833 C 95.3333 % 14.67 C
1929 09-08-2019 08:00:00 16.44167 C 93.1667 % 15.33 C
1930 09-08-2019 09:00:00 18.26667 C 87.8333 % 16.22 C
1931 09-08-2019 10:00:00 20.60833 C 80.7500 % 17.18 C
1932 09-08-2019 11:00:00 23.8 C 71.5833 % 18.35 C
1933 09-08-2019 12:00:00 25.26667 C 65.8333 % 18.42 C
1934 09-08-2019 13:00:00 25.275 C 66.4167 % 18.57 C
1935 09-08-2019 14:00:00 24.75 C 77.3333 % 20.51 C
1936 09-08-2019 15:00:00 24.43333 C 82.0833 % 21.17 C
1937 09-08-2019 16:00:00 27.25 C 69.9167 % 21.28 C
1938 09-08-2019 17:00:00 25.45 C 81.5000 % 22.05 C
1939 09-08-2019 18:00:00 22.78333 C 88.9167 % 20.86 C
1940 09-08-2019 19:00:00 21.5 C 93.0833 % 20.33 C
1941 09-08-2019 20:00:00 19.63333 C 94.0833 % 18.65 C
1942 09-08-2019 21:00:00 19.31667 C 95.5000 % 18.58 C
1943 09-08-2019 22:00:00 19.30833 C 96.0000 % 18.65 C
1944 09-08-2019 23:00:00 18.86667 C 96.0000 % 18.21 C
1945 10-08-2019 00:00:00 18.775 C 96.5833 % 18.22 C
1946 10-08-2019 01:00:00 18.73333 C 96.9167 % 18.23 C
1947 10-08-2019 02:00:00 18.50833 C 97.0000 % 18.02 C
1948 10-08-2019 03:00:00 18.29167 C 97.0000 % 17.81 C
1949 10-08-2019 04:00:00 18.11667 C 97.0000 % 17.63 C
1950 10-08-2019 05:00:00 17.53333 C 97.0000 % 17.05 C
Sensor: Nr:Datum:Temp:Feuchte:Taupunkt:
Aussen-T/F 1951 10-08-2019 06:00:00 17.45 C 97.0000 % 16.97 C
1952 10-08-2019 07:00:00 17.33333 C 97.0000 % 16.85 C
1953 10-08-2019 08:00:00 17.41667 C 95.0833 % 16.62 C
1954 10-08-2019 09:00:00 19.125 C 86.0000 % 16.73 C
1955 10-08-2019 10:00:00 20.36667 C 79.5000 % 16.7 C
1956 10-08-2019 11:00:00 21.43333 C 74.3333 % 16.68 C
1957 10-08-2019 12:00:00 22.38333 C 69.0000 % 16.42 C
1958 10-08-2019 13:00:00 23.26667 C 63.4167 % 15.93 C
1959 10-08-2019 14:00:00 23.83333 C 60.7500 % 15.8 C
1960 10-08-2019 15:00:00 24.99167 C 55.4167 % 15.44 C
1961 10-08-2019 16:00:00 25.24167 C 53.5000 % 15.13 C
1962 10-08-2019 17:00:00 26.29167 C 49.2500 % 14.81 C
1963 10-08-2019 18:00:00 25.99167 C 49.0833 % 14.48 C
1964 10-08-2019 19:00:00 25.00833 C 49.6667 % 13.76 C
1965 10-08-2019 20:00:00 22.63333 C 61.2500 % 14.79 C
1966 10-08-2019 21:00:00 19.41667 C 72.6667 % 14.38 C
1967 10-08-2019 22:00:00 17.71667 C 78.7500 % 13.98 C
1968 10-08-2019 23:00:00 16.45833 C 82.0000 % 13.38 C
1969 11-08-2019 00:00:00 15.75833 C 84.8333 % 13.21 C
1970 11-08-2019 01:00:00 15.375 C 87.3333 % 13.28 C
1971 11-08-2019 02:00:00 15.7 C 86.5000 % 13.45 C
1972 11-08-2019 03:00:00 15.20833 C 86.5000 % 12.97 C
1973 11-08-2019 04:00:00 14.43333 C 88.3333 % 12.53 C
1974 11-08-2019 05:00:00 13.58333 C 90.1667 % 12 C
1975 11-08-2019 06:00:00 13.40833 C 92.6667 % 12.25 C
Sensor: Nr:Datum:Temp:Feuchte:Taupunkt:
Aussen-T/F 1976 11-08-2019 07:00:00 14.04167 C 92.2500 % 12.8 C
1977 11-08-2019 08:00:00 14.9 C 91.3333 % 13.5 C
1978 11-08-2019 09:00:00 16.21667 C 87.0833 % 14.07 C
1979 11-08-2019 10:00:00 19.375 C 69.7500 % 13.71 C
1980 11-08-2019 11:00:00 21.26667 C 59.2500 % 13 C
1981 11-08-2019 12:00:00 22.09167 C 55.8333 % 12.86 C
1982 11-08-2019 13:00:00 22.775 C 51.0833 % 12.14 C
1983 11-08-2019 14:00:00 22.89167 C 52.5833 % 12.69 C
1984 11-08-2019 15:00:00 21.50833 C 61.3333 % 13.76 C
1985 11-08-2019 16:00:00 20.05 C 70.0000 % 14.41 C
1986 11-08-2019 17:00:00 17.18333 C 86.8333 % 14.97 C
1987 11-08-2019 18:00:00 16.475 C 90.4167 % 14.9 C
1988 11-08-2019 19:00:00 16.075 C 89.6667 % 14.38 C
1989 11-08-2019 20:00:00 15.775 C 91.0000 % 14.31 C
1990 11-08-2019 21:00:00 15.23333 C 91.7500 % 13.9 C
1991 11-08-2019 22:00:00 14.3 C 91.8333 % 12.99 C
1992 11-08-2019 23:00:00 14.24167 C 93.3333 % 13.18 C
1993 12-08-2019 00:00:00 14.85833 C 92.5833 % 13.67 C
1994 12-08-2019 01:00:00 14.325 C 92.0833 % 13.06 C
1995 12-08-2019 02:00:00 13.66667 C 93.4167 % 12.62 C
1996 12-08-2019 03:00:00 13.125 C 94.0000 % 12.18 C
1997 12-08-2019 04:00:00 12.89167 C 95.0000 % 12.11 C
1998 12-08-2019 05:00:00 12.675 C 95.0000 % 11.9 C
1999 12-08-2019 06:00:00 12.69167 C 95.5833 % 12 C
2000 12-08-2019 07:00:00 13.05833 C 96.0000 % 12.44 C
Sensor: Nr:Datum:Temp:Feuchte:Taupunkt:
Aussen-T/F 2001 12-08-2019 08:00:00 13.5 C 96.0000 % 12.87 C
2002 12-08-2019 09:00:00 15.05 C 92.5833 % 13.86 C
2003 12-08-2019 10:00:00 17.65 C 82.5000 % 14.63 C
2004 12-08-2019 11:00:00 20.08333 C 72.5833 % 15.01 C
2005 12-08-2019 12:00:00 21.275 C 65.6667 % 14.59 C
2006 12-08-2019 13:00:00 21.775 C 60.7500 % 13.86 C
2007 12-08-2019 14:00:00 22.55 C 60.2500 % 14.46 C
2008 12-08-2019 15:00:00 23.475 C 55.5833 % 14.08 C
2009 12-08-2019 16:00:00 22.54167 C 58.5000 % 14 C
2010 12-08-2019 17:00:00 17.89167 C 77.2500 % 13.85 C
2011 12-08-2019 18:00:00 15.925 C 90.0000 % 14.29 C
2012 12-08-2019 19:00:00 15.925 C 92.0000 % 14.63 C
2013 12-08-2019 20:00:00 15.54167 C 92.1667 % 14.28 C
2014 12-08-2019 21:00:00 15.19167 C 93.5833 % 14.16 C
2015 12-08-2019 22:00:00 14.975 C 94.0000 % 14.02 C
2016 12-08-2019 23:00:00 14.01667 C 92.6667 % 12.85 C
2017 13-08-2019 00:00:00 13.55833 C 94.2500 % 12.65 C
2018 13-08-2019 01:00:00 13.025 C 94.2500 % 12.12 C
2019 13-08-2019 02:00:00 12.83333 C 95.2500 % 12.09 C
2020 13-08-2019 03:00:00 12.9 C 95.5833 % 12.21 C
2021 13-08-2019 04:00:00 13.275 C 95.8333 % 12.62 C
2022 13-08-2019 05:00:00 13.18333 C 95.0000 % 12.4 C
2023 13-08-2019 06:00:00 12.75 C 95.1667 % 12 C
2024 13-08-2019 07:00:00 12.9 C 95.2500 % 12.16 C
2025 13-08-2019 08:00:00 13.39167 C 92.7500 % 12.24 C
Sensor: Nr:Datum:Temp:Feuchte:Taupunkt:
Aussen-T/F 2026 13-08-2019 09:00:00 14.85 C 86.8333 % 12.68 C
2027 13-08-2019 10:00:00 16.225 C 74.6667 % 11.72 C
2028 13-08-2019 11:00:00 17.175 C 67.2500 % 11.06 C
2029 13-08-2019 12:00:00 18.13333 C 63.4167 % 11.08 C
2030 13-08-2019 13:00:00 19.025 C 55.6667 % 9.97 C
2031 13-08-2019 14:00:00 19.875 C 52.8333 % 9.97 C
2032 13-08-2019 15:00:00 21.275 C 50.3333 % 10.54 C
2033 13-08-2019 16:00:00 21.38333 C 50.9167 % 10.81 C
2034 13-08-2019 17:00:00 21.25833 C 50.5000 % 10.57 C
2035 13-08-2019 18:00:00 21.175 C 51.8333 % 10.89 C
2036 13-08-2019 19:00:00 18.53333 C 64.7500 % 11.78 C
2037 13-08-2019 20:00:00 14.91667 C 86.6667 % 12.71 C
2038 13-08-2019 21:00:00 13.99167 C 91.3333 % 12.6 C
2039 13-08-2019 22:00:00 13.63333 C 92.5833 % 12.45 C
2040 13-08-2019 23:00:00 13.36667 C 93.0000 % 12.26 C
2041 14-08-2019 00:00:00 13.05 C 93.0833 % 11.96 C
2042 14-08-2019 01:00:00 12.61667 C 93.1667 % 11.54 C
2043 14-08-2019 02:00:00 12.10833 C 93.1667 % 11.04 C
2044 14-08-2019 03:00:00 11.93333 C 94.0000 % 11 C
2045 14-08-2019 04:00:00 11.43333 C 94.0833 % 10.52 C
2046 14-08-2019 05:00:00 11.00833 C 95.0000 % 10.24 C
2047 14-08-2019 06:00:00 10.61667 C 95.1667 % 9.88 C
2048 14-08-2019 07:00:00 10.61667 C 96.0000 % 10.01 C
2049 14-08-2019 08:00:00 11.4 C 96.3333 % 10.84 C
2050 14-08-2019 09:00:00 13.28333 C 93.5000 % 12.26 C
Sensor: Nr:Datum:Temp:Feuchte:Taupunkt:
Aussen-T/F 2051 14-08-2019 10:00:00 14.26667 C 91.8333 % 12.96 C
2052 14-08-2019 11:00:00 15.66667 C 83.2500 % 12.84 C
2053 14-08-2019 12:00:00 18.1 C 62.7500 % 10.89 C
2054 14-08-2019 13:00:00 19.59167 C 55.0000 % 10.31 C
2055 14-08-2019 14:00:00 21.08333 C 50.1667 % 10.31 C
2056 14-08-2019 15:00:00 22.60833 C 49.2500 % 11.44 C
2057 14-08-2019 16:00:00 23.74167 C 46.2500 % 11.52 C
2058 14-08-2019 17:00:00 24.44167 C 44.7500 % 11.66 C
2059 14-08-2019 18:00:00 24 C 46.7500 % 11.92 C
2060 14-08-2019 19:00:00 22.31667 C 56.5000 % 13.25 C
2061 14-08-2019 20:00:00 19.675 C 67.5833 % 13.51 C
2062 14-08-2019 21:00:00 18.1 C 74.0833 % 13.41 C
2063 14-08-2019 22:00:00 17.63333 C 76.1667 % 13.39 C
2064 14-08-2019 23:00:00 17.4 C 76.5000 % 13.23 C
2065 15-08-2019 00:00:00 17.35833 C 76.5833 % 13.21 C
2066 15-08-2019 01:00:00 17.38333 C 77.5000 % 13.41 C
2067 15-08-2019 02:00:00 16.2 C 88.4167 % 14.28 C
2068 15-08-2019 03:00:00 15.275 C 92.4167 % 14.05 C
2069 15-08-2019 04:00:00 14.90833 C 93.6667 % 13.9 C
2070 15-08-2019 05:00:00 14.84167 C 94.1667 % 13.91 C
2071 15-08-2019 06:00:00 14.96667 C 94.8333 % 14.15 C
2072 15-08-2019 07:00:00 15.6 C 92.3333 % 14.36 C
2073 15-08-2019 08:00:00 17.59167 C 83.9167 % 14.84 C
2074 15-08-2019 09:00:00 18.48333 C 81.5000 % 15.26 C
2075 15-08-2019 10:00:00 19.14167 C 81.0000 % 15.8 C
Sensor: Nr:Datum:Temp:Feuchte:Taupunkt:
Aussen-T/F 2076 15-08-2019 11:00:00 19.28333 C 81.5833 % 16.05 C
2077 15-08-2019 12:00:00 19.90833 C 79.6667 % 16.29 C
2078 15-08-2019 13:00:00 18.94167 C 88.6667 % 17.03 C
2079 15-08-2019 14:00:00 19.73333 C 86.0000 % 17.32 C
2080 15-08-2019 15:00:00 20.79167 C 81.3333 % 17.48 C
2081 15-08-2019 16:00:00 19.325 C 89.5833 % 17.57 C
2082 15-08-2019 17:00:00 17.3 C 92.9167 % 16.14 C
2083 15-08-2019 18:00:00 16.975 C 94.1667 % 16.03 C
2084 15-08-2019 19:00:00 17.25 C 94.5833 % 16.37 C
2085 15-08-2019 20:00:00 17.09167 C 94.5833 % 16.22 C
2086 15-08-2019 21:00:00 16.40833 C 94.7500 % 15.56 C
2087 15-08-2019 22:00:00 15.93333 C 94.5833 % 15.06 C
2088 15-08-2019 23:00:00 15.54167 C 95.0000 % 14.74 C
2089 16-08-2019 00:00:00 15.29167 C 95.0833 % 14.51 C
2090 16-08-2019 01:00:00 14.63333 C 95.2500 % 13.88 C
2091 16-08-2019 02:00:00 14.575 C 96.0000 % 13.94 C
2092 16-08-2019 03:00:00 14.64167 C 96.0000 % 14.01 C
2093 16-08-2019 04:00:00 14.08333 C 96.0000 % 13.46 C
2094 16-08-2019 05:00:00 13.575 C 96.2500 % 12.99 C
2095 16-08-2019 06:00:00 13.69167 C 97.0000 % 13.22 C
2096 16-08-2019 07:00:00 14.18333 C 96.5833 % 13.65 C
2097 16-08-2019 08:00:00 14.45833 C 95.0833 % 13.68 C
2098 16-08-2019 09:00:00 15.54167 C 89.7500 % 13.87 C
2099 16-08-2019 10:00:00 16.26667 C 85.7500 % 13.88 C
2100 16-08-2019 11:00:00 17.1 C 82.4167 % 14.08 C
Sensor: Nr:Datum:Temp:Feuchte:Taupunkt:
Aussen-T/F 2101 16-08-2019 12:00:00 18.43333 C 76.4167 % 14.21 C
2102 16-08-2019 13:00:00 19.65 C 70.7500 % 14.19 C
2103 16-08-2019 14:00:00 20.4 C 67.6667 % 14.22 C
2104 16-08-2019 15:00:00 21.90833 C 61.0000 % 14.05 C
2105 16-08-2019 16:00:00 23.63333 C 54.5000 % 13.92 C
2106 16-08-2019 17:00:00 24.475 C 51.8333 % 13.93 C
2107 16-08-2019 18:00:00 24.43333 C 52.0833 % 13.96 C
2108 16-08-2019 19:00:00 23.41667 C 58.1667 % 14.73 C
2109 16-08-2019 20:00:00 20.075 C 71.5833 % 14.78 C
2110 16-08-2019 21:00:00 17.75833 C 80.3333 % 14.33 C
2111 16-08-2019 22:00:00 16.88333 C 84.8333 % 14.32 C
2112 16-08-2019 23:00:00 16.23333 C 86.5833 % 13.99 C
2113 17-08-2019 00:00:00 15.69167 C 87.8333 % 13.68 C
2114 17-08-2019 01:00:00 15.86667 C 88.2500 % 13.93 C
2115 17-08-2019 02:00:00 15.76667 C 88.6667 % 13.9 C
2116 17-08-2019 03:00:00 15.76667 C 91.0833 % 14.32 C
2117 17-08-2019 04:00:00 15.69167 C 93.2500 % 14.6 C
2118 17-08-2019 05:00:00 15.63333 C 94.0000 % 14.67 C
2119 17-08-2019 06:00:00 15.65833 C 94.0000 % 14.7 C
2120 17-08-2019 07:00:00 16.13333 C 94.0000 % 15.17 C
2121 17-08-2019 08:00:00 16.95833 C 90.7500 % 15.44 C
2122 17-08-2019 09:00:00 18.66667 C 80.1667 % 15.18 C
2123 17-08-2019 10:00:00 19.01667 C 81.0833 % 15.7 C
2124 17-08-2019 11:00:00 18.59167 C 86.8333 % 16.36 C
2125 17-08-2019 12:00:00 19.275 C 85.1667 % 16.72 C
Sensor: Nr:Datum:Temp:Feuchte:Taupunkt:
Aussen-T/F 2126 17-08-2019 13:00:00 20.68333 C 76.3333 % 16.37 C
2127 17-08-2019 14:00:00 21 C 74.9167 % 16.38 C
2128 17-08-2019 15:00:00 21.31667 C 74.8333 % 16.67 C
2129 17-08-2019 16:00:00 21 C 75.9167 % 16.59 C
2130 17-08-2019 17:00:00 20.44167 C 77.9167 % 16.46 C
2131 17-08-2019 18:00:00 19.975 C 83.0833 % 17.02 C
2132 17-08-2019 19:00:00 19.125 C 88.2500 % 17.13 C
2133 17-08-2019 20:00:00 18.325 C 91.0833 % 16.84 C
2134 17-08-2019 21:00:00 17.84167 C 92.6667 % 16.64 C
2135 17-08-2019 22:00:00 17.74167 C 94.0000 % 16.76 C
2136 17-08-2019 23:00:00 17.525 C 94.6667 % 16.66 C
2137 18-08-2019 00:00:00 17.4 C 95.0000 % 16.59 C
2138 18-08-2019 01:00:00 17.38333 C 95.5833 % 16.67 C
2139 18-08-2019 02:00:00 17.225 C 96.0000 % 16.58 C
2140 18-08-2019 03:00:00 17.2 C 96.0000 % 16.56 C
2141 18-08-2019 04:00:00 17.18333 C 96.0000 % 16.54 C
2142 18-08-2019 05:00:00 17.3 C 96.7500 % 16.78 C
2143 18-08-2019 06:00:00 17.26667 C 97.0000 % 16.79 C
2144 18-08-2019 07:00:00 17.34167 C 97.0000 % 16.86 C
2145 18-08-2019 08:00:00 17.93333 C 97.0000 % 17.45 C
2146 18-08-2019 09:00:00 18.85833 C 97.2500 % 18.41 C
2147 18-08-2019 10:00:00 19.93333 C 97.4167 % 19.51 C
2148 18-08-2019 11:00:00 22.19167 C 92.0833 % 20.84 C
2149 18-08-2019 12:00:00 24.075 C 77.7500 % 19.95 C
2150 18-08-2019 13:00:00 24.4 C 75.8333 % 19.86 C
Sensor: Nr:Datum:Temp:Feuchte:Taupunkt:
Aussen-T/F 2151 18-08-2019 14:00:00 24.725 C 74.8333 % 19.96 C
2152 18-08-2019 15:00:00 24.7 C 75.8333 % 20.15 C
2153 18-08-2019 16:00:00 24.99167 C 72.7500 % 19.76 C
2154 18-08-2019 17:00:00 24.35 C 72.7500 % 19.14 C
2155 18-08-2019 18:00:00 20.49167 C 91.6667 % 19.09 C
2156 18-08-2019 19:00:00 20.00833 C 93.8333 % 18.98 C
2157 18-08-2019 20:00:00 19.45833 C 94.6667 % 18.58 C
2158 18-08-2019 21:00:00 18.8 C 94.3333 % 17.87 C
2159 18-08-2019 22:00:00 17.65 C 94.5000 % 16.76 C
2160 18-08-2019 23:00:00 16.59167 C 95.0000 % 15.79 C
2161 19-08-2019 00:00:00 16.14167 C 96.0000 % 15.5 C
2162 19-08-2019 01:00:00 16.10833 C 96.0000 % 15.47 C
2163 19-08-2019 02:00:00 15.81667 C 96.0000 % 15.18 C
2164 19-08-2019 03:00:00 15.38333 C 96.0833 % 14.76 C
2165 19-08-2019 04:00:00 14.78333 C 96.1667 % 14.18 C
2166 19-08-2019 05:00:00 15.125 C 97.0000 % 14.65 C
2167 19-08-2019 06:00:00 14.61667 C 96.8333 % 14.12 C
2168 19-08-2019 07:00:00 15.025 C 97.1667 % 14.58 C
2169 19-08-2019 08:00:00 15.65833 C 97.0000 % 15.18 C
2170 19-08-2019 09:00:00 15.89167 C 96.5833 % 15.35 C
2171 19-08-2019 10:00:00 16.63333 C 87.6667 % 14.58 C
2172 19-08-2019 11:00:00 18.55833 C 74.7500 % 13.99 C
2173 19-08-2019 12:00:00 20.275 C 64.5000 % 13.37 C
2174 19-08-2019 13:00:00 21.525 C 58.3333 % 13 C
2175 19-08-2019 14:00:00 22.79167 C 53.8333 % 12.96 C
Sensor: Nr:Datum:Temp:Feuchte:Taupunkt:
Aussen-T/F 2176 19-08-2019 15:00:00 23.46667 C 50.6667 % 12.65 C
2177 19-08-2019 16:00:00 23.78333 C 50.6667 % 12.94 C
2178 19-08-2019 17:00:00 24.025 C 48.4167 % 12.47 C
2179 19-08-2019 18:00:00 23.51667 C 50.5000 % 12.65 C
2180 19-08-2019 19:00:00 22.95833 C 56.3333 % 13.81 C
2181 19-08-2019 20:00:00 19.71667 C 69.6667 % 14.02 C
2182 19-08-2019 21:00:00 17.30833 C 74.8333 % 12.8 C
2183 19-08-2019 22:00:00 16.51667 C 80.3333 % 13.12 C
2184 19-08-2019 23:00:00 15.21667 C 83.5833 % 12.46 C
2185 20-08-2019 00:00:00 13.975 C 86.5833 % 11.77 C
2186 20-08-2019 01:00:00 13.21667 C 88.4167 % 11.35 C
2187 20-08-2019 02:00:00 12.825 C 89.9167 % 11.21 C
2188 20-08-2019 03:00:00 12.21667 C 90.6667 % 10.74 C
2189 20-08-2019 04:00:00 11.34167 C 92.5000 % 10.17 C
2190 20-08-2019 05:00:00 10.9 C 93.6667 % 9.92 C
2191 20-08-2019 06:00:00 10.425 C 94.5000 % 9.58 C
2192 20-08-2019 07:00:00 10.78333 C 95.3333 % 10.07 C
2193 20-08-2019 08:00:00 11.425 C 95.5833 % 10.74 C
2194 20-08-2019 09:00:00 12.61667 C 95.0833 % 11.85 C
2195 20-08-2019 10:00:00 15.26667 C 86.0000 % 12.94 C
2196 20-08-2019 11:00:00 17.375 C 73.5833 % 12.61 C
2197 20-08-2019 12:00:00 18.625 C 66.8333 % 12.34 C
2198 20-08-2019 13:00:00 19.525 C 62.1667 % 12.1 C
2199 20-08-2019 14:00:00 20.43333 C 57.3333 % 11.72 C
2200 20-08-2019 15:00:00 21.10833 C 56.2500 % 12.06 C
Sensor: Nr:Datum:Temp:Feuchte:Taupunkt:
Aussen-T/F 2201 20-08-2019 16:00:00 21.41667 C 58.8333 % 13.03 C
2202 20-08-2019 17:00:00 20.68333 C 64.4167 % 13.73 C
2203 20-08-2019 18:00:00 20.375 C 73.9167 % 15.57 C
2204 20-08-2019 19:00:00 18.88333 C 74.8333 % 14.32 C
2205 20-08-2019 20:00:00 17.58333 C 75.7500 % 13.26 C
2206 20-08-2019 21:00:00 16.76667 C 79.9167 % 13.28 C
2207 20-08-2019 22:00:00 15.925 C 83.7500 % 13.18 C
2208 20-08-2019 23:00:00 15.175 C 85.0000 % 12.67 C

Maximal/Minimal-Werte vom 21.05.2019 - 20.08.2019

Sensor Min Max Avg
Temp
(Aussen-T/F)
7.6 °C
23-05-2019  05:45:00
40.4 °C
25-07-2019  16:20:00
19.36 °C
Feuchte
(Aussen-T/F)
19 %
06-07-2019  15:50:00
98 %
14-06-2019  09:05:00
73 %
Taupunkt
(Aussen-T/F)
4.65 C
10-07-2019  14:00:00
22.48 C
26-06-2019  11:00:00
13.71 C

Die Daten stammen von einer Davis Vantage Pro 2 Wetter-Station und werden unter Linux mit der Software wview2wettercgi und aufbereitet. Alle Angaben erfolgen ohne Gewähr für ihre Vollständigkeit oder Richtigkeit.
Kontakt: Rainer Krienke krienke@uni-koblenz.de . Meine Webseiten an der Uni Koblenz oder privat.
Version: $Revision: 0.78 $